AAR201 KLAX-RKSI
Flight info
| Callsign | AAR201 |
|---|---|
| Flight time | 11h 44m |
| Altitude | 34000 |
| Route | SUMMR2 MCKEY DCT LIBBO DCT BRINY DCT BOARS DCT AMAKR DCT REDWD DCT UNVER DCT 42N130W 46N140W 50N150W 51N160W 50N170W 49N180E 46N170E 42N160E DCT KALNA OTR5 ADNAP Y512 GTC L512 TENAS Y437 KAE Y697 KARBU KARBU3C |
| Aircraft | A359/H-SDE2E3GHIJ3J4J5LM1ORWXY/LB1D1 |
Departure
| Time | 2026-05-04 17:25 |
|---|---|
| Airport | Los Angeles International Airport (KLAX) |
Arrival
| Time | 2026-05-05 05:09 |
|---|---|
| Airport | Incheon International Airport (RKSI) |
| Time | Latitude | Longitude | Altitude | Speed | Heading |
|---|---|---|---|---|---|
| 2026-05-04 17:21 | 33.94213 | -118.37983 | 108 ft | 0 kts | 45° |
| 2026-05-04 17:23 | 33.94243 | -118.38020 | 108 ft | 4 kts | 230° |
| 2026-05-04 17:23 | 33.94191 | -118.38038 | 108 ft | 7 kts | 170° |
| 2026-05-04 17:23 | 33.94064 | -118.38004 | 108 ft | 9 kts | 173° |
| 2026-05-04 17:24 | 33.94003 | -118.38010 | 108 ft | 8 kts | 212° |
| 2026-05-04 17:24 | 33.93884 | -118.39027 | 114 ft | 118 kts | 263° |
| 2026-05-04 17:25 | 33.93761 | -118.40226 | 176 ft | 160 kts | 265° |
| 2026-05-04 17:25 | 33.93478 | -118.42972 | 1039 ft | 179 kts | 265° |
| 2026-05-04 17:26 | 33.93160 | -118.46192 | 2008 ft | 210 kts | 264° |
| 2026-05-04 17:26 | 33.92665 | -118.52035 | 3696 ft | 260 kts | 264° |
| 2026-05-04 17:27 | 33.92293 | -118.56454 | 5361 ft | 271 kts | 264° |
| 2026-05-04 17:27 | 33.91917 | -118.60957 | 7056 ft | 277 kts | 264° |
| 2026-05-04 17:28 | 33.91743 | -118.65572 | 8636 ft | 283 kts | 269° |
| 2026-05-04 17:29 | 33.91734 | -118.72751 | 10620 ft | 299 kts | 269° |
| 2026-05-04 17:29 | 33.91694 | -118.80843 | 11573 ft | 346 kts | 269° |
| 2026-05-04 17:30 | 33.91888 | -118.90082 | 12465 ft | 388 kts | 272° |
| 2026-05-04 17:31 | 33.92087 | -118.96627 | 13575 ft | 396 kts | 272° |
| 2026-05-04 17:31 | 33.94459 | -119.06100 | 15121 ft | 404 kts | 301° |
| 2026-05-04 17:32 | 33.97465 | -119.11826 | 16042 ft | 410 kts | 302° |
| 2026-05-04 17:33 | 34.02728 | -119.19981 | 17381 ft | 418 kts | 319° |
| 2026-05-04 17:33 | 34.05014 | -119.22140 | 17815 ft | 420 kts | 324° |
| 2026-05-04 17:34 | 34.12242 | -119.28280 | 19046 ft | 428 kts | 325° |
| 2026-05-04 17:34 | 34.14673 | -119.30341 | 19440 ft | 431 kts | 325° |
| 2026-05-04 17:35 | 34.22040 | -119.36661 | 20581 ft | 438 kts | 324° |
| 2026-05-04 17:35 | 34.26995 | -119.40943 | 21305 ft | 442 kts | 324° |
| 2026-05-04 17:35 | 34.30331 | -119.43834 | 21770 ft | 445 kts | 324° |
| 2026-05-04 17:36 | 34.31992 | -119.45275 | 21995 ft | 447 kts | 324° |
| 2026-05-04 17:36 | 34.34514 | -119.47462 | 22331 ft | 449 kts | 324° |
| 2026-05-04 17:36 | 34.37064 | -119.49674 | 22665 ft | 451 kts | 324° |
| 2026-05-04 17:36 | 34.39539 | -119.51977 | 22986 ft | 453 kts | 320° |
| 2026-05-04 17:37 | 34.41903 | -119.54542 | 23306 ft | 455 kts | 316° |
| 2026-05-04 17:37 | 34.44084 | -119.57317 | 23614 ft | 457 kts | 311° |
| 2026-05-04 17:37 | 34.46145 | -119.60190 | 23914 ft | 459 kts | 311° |
| 2026-05-04 17:37 | 34.48234 | -119.63168 | 24207 ft | 461 kts | 310° |
| 2026-05-04 17:38 | 34.50311 | -119.66141 | 24491 ft | 463 kts | 310° |
| 2026-05-04 17:38 | 34.52373 | -119.69102 | 24768 ft | 465 kts | 310° |
| 2026-05-04 17:38 | 34.54451 | -119.72085 | 25038 ft | 467 kts | 310° |
| 2026-05-04 17:38 | 34.56576 | -119.75129 | 25306 ft | 469 kts | 310° |
| 2026-05-04 17:39 | 34.60801 | -119.81167 | 25814 ft | 473 kts | 310° |
| 2026-05-04 17:39 | 34.62902 | -119.84167 | 26055 ft | 474 kts | 310° |
| 2026-05-04 17:39 | 34.65044 | -119.87228 | 26291 ft | 476 kts | 310° |
| 2026-05-04 17:40 | 34.67191 | -119.90298 | 26521 ft | 477 kts | 310° |
| 2026-05-04 17:40 | 34.69349 | -119.93385 | 26746 ft | 479 kts | 310° |
| 2026-05-04 17:40 | 34.71497 | -119.96461 | 26959 ft | 481 kts | 310° |
| 2026-05-04 17:40 | 34.73631 | -119.99519 | 27165 ft | 482 kts | 310° |
| 2026-05-04 17:41 | 34.75807 | -120.02639 | 27370 ft | 484 kts | 310° |
| 2026-05-04 17:41 | 34.77970 | -120.05745 | 27567 ft | 485 kts | 310° |
| 2026-05-04 17:41 | 34.80160 | -120.08891 | 27762 ft | 486 kts | 310° |
| 2026-05-04 17:41 | 34.82347 | -120.12035 | 27952 ft | 488 kts | 310° |
| 2026-05-04 17:42 | 34.84512 | -120.15152 | 28136 ft | 489 kts | 310° |
| 2026-05-04 17:42 | 34.86707 | -120.18315 | 28351 ft | 489 kts | 310° |
| 2026-05-04 17:42 | 34.88891 | -120.21463 | 28620 ft | 489 kts | 310° |
| 2026-05-04 17:42 | 34.91095 | -120.24644 | 28895 ft | 488 kts | 310° |
| 2026-05-04 17:43 | 34.93265 | -120.27777 | 29150 ft | 487 kts | 310° |
| 2026-05-04 17:43 | 34.95433 | -120.30911 | 29390 ft | 486 kts | 310° |
| 2026-05-04 17:43 | 34.97600 | -120.34045 | 29621 ft | 486 kts | 310° |
| 2026-05-04 17:43 | 34.99775 | -120.37195 | 29848 ft | 485 kts | 310° |
| 2026-05-04 17:44 | 35.01928 | -120.40315 | 30067 ft | 485 kts | 310° |
| 2026-05-04 17:44 | 35.04091 | -120.43452 | 30283 ft | 484 kts | 310° |
| 2026-05-04 17:44 | 35.06253 | -120.46590 | 30493 ft | 484 kts | 310° |
| 2026-05-04 17:44 | 35.08415 | -120.49733 | 30698 ft | 484 kts | 310° |
| 2026-05-04 17:45 | 35.10585 | -120.52889 | 30898 ft | 483 kts | 310° |
| 2026-05-04 17:45 | 35.12743 | -120.56012 | 31091 ft | 483 kts | 310° |
| 2026-05-04 17:45 | 35.14902 | -120.59133 | 31278 ft | 482 kts | 310° |
| 2026-05-04 17:45 | 35.17057 | -120.62260 | 31462 ft | 482 kts | 310° |
| 2026-05-04 17:46 | 35.19208 | -120.65390 | 31640 ft | 481 kts | 310° |
| 2026-05-04 17:46 | 35.21340 | -120.68511 | 31813 ft | 481 kts | 309° |
| 2026-05-04 17:46 | 35.23460 | -120.71627 | 31981 ft | 481 kts | 309° |
| 2026-05-04 17:46 | 35.25613 | -120.74792 | 32144 ft | 480 kts | 310° |
| 2026-05-04 17:47 | 35.27721 | -120.77889 | 32280 ft | 481 kts | 310° |
| 2026-05-04 17:47 | 35.29879 | -120.81059 | 32400 ft | 481 kts | 310° |
| 2026-05-04 17:47 | 35.32009 | -120.84188 | 32512 ft | 482 kts | 310° |
| 2026-05-04 17:47 | 35.34149 | -120.87337 | 32624 ft | 482 kts | 310° |
| 2026-05-04 17:48 | 35.36280 | -120.90474 | 32735 ft | 483 kts | 310° |
| 2026-05-04 17:48 | 35.38423 | -120.93632 | 32844 ft | 483 kts | 310° |
| 2026-05-04 17:48 | 35.40564 | -120.96791 | 32949 ft | 483 kts | 310° |
| 2026-05-04 17:48 | 35.42693 | -120.99936 | 33051 ft | 484 kts | 310° |
| 2026-05-04 17:49 | 35.46974 | -121.06270 | 33246 ft | 485 kts | 310° |
| 2026-05-04 17:49 | 35.51313 | -121.12593 | 33431 ft | 485 kts | 310° |
| 2026-05-04 17:50 | 35.55706 | -121.18880 | 33607 ft | 486 kts | 310° |
| 2026-05-04 17:50 | 35.60094 | -121.25185 | 33773 ft | 487 kts | 310° |
| 2026-05-04 17:51 | 35.64468 | -121.31496 | 33929 ft | 487 kts | 310° |
| 2026-05-04 17:51 | 35.68853 | -121.37839 | 33987 ft | 490 kts | 310° |
| 2026-05-04 17:52 | 35.73258 | -121.44228 | 33983 ft | 485 kts | 310° |
| 2026-05-04 17:52 | 35.77611 | -121.50552 | 33992 ft | 487 kts | 310° |
| 2026-05-04 17:53 | 35.81981 | -121.56914 | 33992 ft | 488 kts | 310° |
| 2026-05-04 17:53 | 35.86335 | -121.63268 | 33990 ft | 485 kts | 310° |
| 2026-05-04 17:54 | 35.90622 | -121.69551 | 33991 ft | 476 kts | 310° |
| 2026-05-04 17:54 | 35.94936 | -121.75708 | 33993 ft | 473 kts | 313° |
| 2026-05-04 17:55 | 35.99675 | -121.81227 | 33995 ft | 473 kts | 320° |
| 2026-05-04 17:55 | 36.04982 | -121.86050 | 33995 ft | 473 kts | 327° |
| 2026-05-04 17:56 | 36.10597 | -121.89986 | 33995 ft | 473 kts | 333° |
| 2026-05-04 17:56 | 36.16370 | -121.93566 | 33993 ft | 473 kts | 333° |
| 2026-05-04 17:57 | 36.22236 | -121.97200 | 33993 ft | 473 kts | 333° |
| 2026-05-04 17:57 | 36.28103 | -122.00864 | 33993 ft | 473 kts | 333° |
| 2026-05-04 17:58 | 36.33931 | -122.04521 | 33993 ft | 473 kts | 333° |
| 2026-05-04 17:58 | 36.39808 | -122.08218 | 33993 ft | 473 kts | 333° |
| 2026-05-04 17:59 | 36.45625 | -122.11885 | 33993 ft | 473 kts | 333° |
| 2026-05-04 18:00 | 36.54419 | -122.17441 | 33993 ft | 473 kts | 333° |
| 2026-05-04 18:00 | 36.60279 | -122.21150 | 33993 ft | 473 kts | 333° |
| 2026-05-04 18:01 | 36.66092 | -122.24837 | 33993 ft | 473 kts | 333° |
| 2026-05-04 18:01 | 36.71948 | -122.28557 | 33993 ft | 473 kts | 333° |
| 2026-05-04 18:02 | 36.80723 | -122.34144 | 33993 ft | 473 kts | 333° |
| 2026-05-04 18:02 | 36.86572 | -122.37877 | 33993 ft | 473 kts | 333° |
| 2026-05-04 18:03 | 36.92386 | -122.41592 | 33993 ft | 473 kts | 333° |
| 2026-05-04 18:03 | 36.98241 | -122.45343 | 33993 ft | 473 kts | 333° |
| 2026-05-04 18:04 | 37.04089 | -122.49095 | 33993 ft | 473 kts | 333° |
| 2026-05-04 18:05 | 37.12840 | -122.54720 | 33993 ft | 473 kts | 333° |
| 2026-05-04 18:05 | 37.18664 | -122.58460 | 33993 ft | 473 kts | 333° |
| 2026-05-04 18:06 | 37.27434 | -122.64129 | 33993 ft | 473 kts | 333° |
| 2026-05-04 18:06 | 37.33405 | -122.67573 | 33993 ft | 473 kts | 338° |
| 2026-05-04 18:07 | 37.39478 | -122.70628 | 33993 ft | 473 kts | 338° |
| 2026-05-04 18:07 | 37.45563 | -122.73656 | 33993 ft | 473 kts | 338° |
| 2026-05-04 18:08 | 37.51657 | -122.76700 | 33993 ft | 473 kts | 338° |
| 2026-05-04 18:08 | 37.57753 | -122.79754 | 33993 ft | 473 kts | 338° |
| 2026-05-04 18:09 | 37.69975 | -122.85897 | 33993 ft | 473 kts | 338° |
| 2026-05-04 18:10 | 37.76054 | -122.88962 | 33993 ft | 473 kts | 338° |
| 2026-05-04 18:10 | 37.82147 | -122.92038 | 33993 ft | 473 kts | 338° |
| 2026-05-04 18:11 | 37.88215 | -122.95108 | 33993 ft | 473 kts | 338° |
| 2026-05-04 18:11 | 37.94304 | -122.98194 | 33993 ft | 473 kts | 338° |
| 2026-05-04 18:12 | 38.00428 | -123.01305 | 33993 ft | 473 kts | 338° |
| 2026-05-04 18:12 | 38.06524 | -123.04408 | 33993 ft | 473 kts | 338° |
| 2026-05-04 18:13 | 38.12614 | -123.07511 | 33993 ft | 473 kts | 338° |
| 2026-05-04 18:14 | 38.21652 | -123.12318 | 33993 ft | 473 kts | 334° |
| 2026-05-04 18:14 | 38.27409 | -123.16338 | 33993 ft | 473 kts | 328° |
| 2026-05-04 18:15 | 38.38539 | -123.25236 | 33993 ft | 473 kts | 328° |
| 2026-05-04 18:16 | 38.44073 | -123.29678 | 33993 ft | 473 kts | 328° |
| 2026-05-04 18:16 | 38.49630 | -123.34139 | 33993 ft | 473 kts | 328° |
| 2026-05-04 18:17 | 38.57951 | -123.40830 | 33993 ft | 473 kts | 328° |
| 2026-05-04 18:18 | 38.66307 | -123.47570 | 33993 ft | 473 kts | 328° |
| 2026-05-04 18:18 | 38.71837 | -123.52041 | 33993 ft | 473 kts | 328° |
| 2026-05-04 18:19 | 38.80178 | -123.58804 | 33993 ft | 473 kts | 328° |
| 2026-05-04 18:19 | 38.85722 | -123.63314 | 33993 ft | 473 kts | 328° |
| 2026-05-04 18:20 | 38.91246 | -123.67837 | 33991 ft | 473 kts | 326° |
| 2026-05-04 18:20 | 38.96397 | -123.73048 | 33991 ft | 473 kts | 316° |
| 2026-05-04 18:21 | 39.00814 | -123.79305 | 33991 ft | 473 kts | 307° |
| 2026-05-04 18:21 | 39.04336 | -123.86384 | 33991 ft | 473 kts | 297° |
| 2026-05-04 18:22 | 39.07237 | -123.93943 | 33993 ft | 473 kts | 296° |
| 2026-05-04 18:22 | 39.10088 | -124.01573 | 33993 ft | 473 kts | 296° |
| 2026-05-04 18:23 | 39.12960 | -124.09162 | 33993 ft | 473 kts | 296° |
| 2026-05-04 18:23 | 39.15844 | -124.16787 | 33993 ft | 473 kts | 296° |
| 2026-05-04 18:24 | 39.18713 | -124.24419 | 33993 ft | 473 kts | 296° |
| 2026-05-04 18:24 | 39.21567 | -124.32040 | 33993 ft | 473 kts | 296° |
| 2026-05-04 18:25 | 39.24415 | -124.39671 | 33993 ft | 473 kts | 296° |
| 2026-05-04 18:25 | 39.27250 | -124.47286 | 33993 ft | 473 kts | 296° |
| 2026-05-04 18:26 | 39.30096 | -124.54951 | 33993 ft | 473 kts | 296° |
| 2026-05-04 18:26 | 39.32928 | -124.62601 | 33993 ft | 473 kts | 296° |
| 2026-05-04 18:27 | 39.35753 | -124.70263 | 33993 ft | 473 kts | 295° |
| 2026-05-04 18:27 | 39.38562 | -124.77916 | 33993 ft | 473 kts | 295° |
| 2026-05-04 18:28 | 39.41379 | -124.85595 | 33993 ft | 473 kts | 295° |
| 2026-05-04 18:28 | 39.44191 | -124.93271 | 33993 ft | 473 kts | 295° |
| 2026-05-04 18:29 | 39.46995 | -125.00943 | 33993 ft | 473 kts | 295° |
| 2026-05-04 18:29 | 39.49794 | -125.08621 | 33993 ft | 473 kts | 295° |
| 2026-05-04 18:30 | 39.53977 | -125.20132 | 33993 ft | 473 kts | 295° |
| 2026-05-04 18:31 | 39.56775 | -125.27857 | 33993 ft | 473 kts | 295° |
| 2026-05-04 18:31 | 39.59558 | -125.35561 | 33993 ft | 473 kts | 295° |
| 2026-05-04 18:32 | 39.62331 | -125.43256 | 33993 ft | 473 kts | 295° |
| 2026-05-04 18:32 | 39.65113 | -125.51000 | 33993 ft | 473 kts | 295° |
| 2026-05-04 18:33 | 39.67875 | -125.58707 | 33993 ft | 473 kts | 295° |
| 2026-05-04 18:33 | 39.70648 | -125.66466 | 33993 ft | 473 kts | 295° |
| 2026-05-04 18:34 | 39.73389 | -125.74183 | 33993 ft | 473 kts | 294° |
| 2026-05-04 18:34 | 39.76146 | -125.81956 | 33993 ft | 473 kts | 295° |
| 2026-05-04 18:35 | 39.78889 | -125.89698 | 33993 ft | 473 kts | 295° |
| 2026-05-04 18:35 | 39.81644 | -125.97488 | 33993 ft | 473 kts | 295° |
| 2026-05-04 18:36 | 39.84368 | -126.05214 | 33993 ft | 473 kts | 295° |
| 2026-05-04 18:36 | 39.87110 | -126.13011 | 33993 ft | 473 kts | 295° |
| 2026-05-04 18:37 | 39.89826 | -126.20755 | 33993 ft | 473 kts | 295° |
| 2026-05-04 18:37 | 39.92549 | -126.28541 | 33993 ft | 473 kts | 295° |
| 2026-05-04 18:38 | 39.95270 | -126.36347 | 33993 ft | 473 kts | 295° |
| 2026-05-04 18:38 | 39.98046 | -126.44140 | 33992 ft | 473 kts | 297° |
| 2026-05-04 18:39 | 40.01292 | -126.51562 | 33993 ft | 473 kts | 303° |
| 2026-05-04 18:39 | 40.05101 | -126.58508 | 33993 ft | 473 kts | 308° |
| 2026-05-04 18:40 | 40.09164 | -126.65256 | 33992 ft | 473 kts | 308° |
| 2026-05-04 18:40 | 40.13234 | -126.72007 | 33993 ft | 473 kts | 308° |
| 2026-05-04 18:41 | 40.17274 | -126.78733 | 33993 ft | 473 kts | 308° |
| 2026-05-04 18:41 | 40.21328 | -126.85523 | 33993 ft | 473 kts | 308° |
| 2026-05-04 18:42 | 40.25339 | -126.92268 | 33993 ft | 473 kts | 308° |
| 2026-05-04 18:42 | 40.29372 | -126.99062 | 33993 ft | 473 kts | 308° |
| 2026-05-04 18:43 | 40.33411 | -127.05843 | 33993 ft | 473 kts | 308° |
| 2026-05-04 18:43 | 40.37445 | -127.12623 | 33993 ft | 473 kts | 308° |
| 2026-05-04 18:44 | 40.41499 | -127.19462 | 33993 ft | 473 kts | 308° |
| 2026-05-04 18:44 | 40.45519 | -127.26264 | 33993 ft | 473 kts | 308° |
| 2026-05-04 18:45 | 40.49529 | -127.33067 | 33993 ft | 473 kts | 308° |
| 2026-05-04 18:45 | 40.53536 | -127.39880 | 33993 ft | 473 kts | 308° |
| 2026-05-04 18:46 | 40.57552 | -127.46723 | 33993 ft | 473 kts | 308° |
| 2026-05-04 18:46 | 40.61553 | -127.53558 | 33993 ft | 473 kts | 308° |
| 2026-05-04 18:47 | 40.65560 | -127.60416 | 33993 ft | 473 kts | 308° |
| 2026-05-04 18:47 | 40.69567 | -127.67294 | 33993 ft | 473 kts | 307° |
| 2026-05-04 18:48 | 40.73550 | -127.74174 | 33993 ft | 473 kts | 307° |
| 2026-05-04 18:48 | 40.77536 | -127.81059 | 33993 ft | 473 kts | 307° |
| 2026-05-04 18:49 | 40.81511 | -127.87930 | 33993 ft | 473 kts | 307° |
| 2026-05-04 18:49 | 40.85502 | -127.94840 | 33993 ft | 473 kts | 307° |
| 2026-05-04 18:50 | 40.89467 | -128.01718 | 33993 ft | 473 kts | 307° |
| 2026-05-04 18:50 | 40.93435 | -128.08618 | 33993 ft | 473 kts | 307° |
| 2026-05-04 18:51 | 40.97406 | -128.15538 | 33993 ft | 473 kts | 307° |
| 2026-05-04 18:51 | 41.01379 | -128.22476 | 33993 ft | 473 kts | 307° |
| 2026-05-04 18:52 | 41.05347 | -128.29421 | 33993 ft | 473 kts | 307° |
| 2026-05-04 18:52 | 41.09309 | -128.36371 | 33993 ft | 473 kts | 307° |
| 2026-05-04 18:53 | 41.13271 | -128.43303 | 33993 ft | 473 kts | 307° |
| 2026-05-04 18:53 | 41.17223 | -128.50221 | 33993 ft | 473 kts | 307° |
| 2026-05-04 18:54 | 41.21174 | -128.57182 | 33993 ft | 473 kts | 307° |
| 2026-05-04 18:54 | 41.25124 | -128.64168 | 33993 ft | 473 kts | 307° |
| 2026-05-04 18:55 | 41.29056 | -128.71166 | 33993 ft | 473 kts | 306° |
| 2026-05-04 18:55 | 41.34929 | -128.81645 | 33993 ft | 473 kts | 307° |
| 2026-05-04 18:56 | 41.38852 | -128.88654 | 33993 ft | 473 kts | 307° |
| 2026-05-04 18:56 | 41.42776 | -128.95673 | 33993 ft | 473 kts | 307° |
| 2026-05-04 18:57 | 41.46692 | -129.02695 | 33993 ft | 473 kts | 307° |
| 2026-05-04 18:57 | 41.50619 | -129.09750 | 33993 ft | 473 kts | 307° |
| 2026-05-04 18:58 | 41.54524 | -129.16783 | 33993 ft | 473 kts | 307° |
| 2026-05-04 18:58 | 41.58421 | -129.23819 | 33993 ft | 473 kts | 307° |
| 2026-05-04 18:59 | 41.62317 | -129.30868 | 33993 ft | 473 kts | 307° |
| 2026-05-04 18:59 | 41.66225 | -129.37955 | 33993 ft | 473 kts | 307° |
| 2026-05-04 19:00 | 41.70093 | -129.44986 | 33993 ft | 473 kts | 307° |
| 2026-05-04 19:00 | 41.73992 | -129.52092 | 33993 ft | 473 kts | 307° |
| 2026-05-04 19:01 | 41.77857 | -129.59151 | 33993 ft | 473 kts | 307° |
| 2026-05-04 19:01 | 41.81752 | -129.66286 | 33993 ft | 473 kts | 306° |
| 2026-05-04 19:02 | 41.85609 | -129.73392 | 33993 ft | 473 kts | 306° |
| 2026-05-04 19:02 | 41.89465 | -129.80501 | 33993 ft | 473 kts | 306° |
| 2026-05-04 19:03 | 41.93346 | -129.87660 | 33993 ft | 473 kts | 306° |
| 2026-05-04 19:03 | 41.97203 | -129.94792 | 33993 ft | 473 kts | 306° |
| 2026-05-04 19:04 | 42.00975 | -130.02019 | 33992 ft | 473 kts | 303° |
| 2026-05-04 19:04 | 42.04485 | -130.09409 | 33993 ft | 473 kts | 302° |
| 2026-05-04 19:05 | 42.08019 | -130.16928 | 33993 ft | 473 kts | 302° |
| 2026-05-04 19:05 | 42.11513 | -130.24361 | 33993 ft | 473 kts | 302° |
| 2026-05-04 19:06 | 42.15054 | -130.31850 | 33993 ft | 473 kts | 302° |
| 2026-05-04 19:06 | 42.18549 | -130.39291 | 33993 ft | 473 kts | 302° |
| 2026-05-04 19:07 | 42.22063 | -130.46809 | 33993 ft | 473 kts | 302° |
| 2026-05-04 19:07 | 42.25547 | -130.54294 | 33993 ft | 473 kts | 302° |
| 2026-05-04 19:08 | 42.29045 | -130.61827 | 33993 ft | 473 kts | 302° |
| 2026-05-04 19:08 | 42.32513 | -130.69330 | 33993 ft | 473 kts | 302° |
| 2026-05-04 19:09 | 42.35984 | -130.76874 | 33993 ft | 473 kts | 302° |
| 2026-05-04 19:09 | 42.39437 | -130.84384 | 33993 ft | 473 kts | 302° |
| 2026-05-04 19:10 | 42.42324 | -130.90669 | 33993 ft | 473 kts | 302° |
| 2026-05-04 19:10 | 42.46379 | -130.99518 | 33993 ft | 473 kts | 302° |
| 2026-05-04 19:11 | 42.49835 | -131.07077 | 33993 ft | 473 kts | 302° |
| 2026-05-04 19:11 | 42.53285 | -131.14641 | 33993 ft | 473 kts | 302° |
| 2026-05-04 19:12 | 42.58448 | -131.26000 | 33993 ft | 473 kts | 302° |
| 2026-05-04 19:13 | 42.61885 | -131.33586 | 33993 ft | 473 kts | 302° |
| 2026-05-04 19:13 | 42.65315 | -131.41174 | 33993 ft | 473 kts | 302° |
| 2026-05-04 19:14 | 42.68748 | -131.48790 | 33993 ft | 473 kts | 302° |
| 2026-05-04 19:14 | 42.72169 | -131.56398 | 33993 ft | 473 kts | 302° |
| 2026-05-04 19:15 | 42.75594 | -131.64033 | 33993 ft | 473 kts | 302° |
| 2026-05-04 19:15 | 42.79573 | -131.72957 | 33993 ft | 473 kts | 301° |
| 2026-05-04 19:16 | 42.82411 | -131.79338 | 33993 ft | 473 kts | 301° |
| 2026-05-04 19:16 | 42.85793 | -131.86949 | 33993 ft | 473 kts | 301° |
| 2026-05-04 19:17 | 42.89202 | -131.94634 | 33993 ft | 473 kts | 301° |
| 2026-05-04 19:17 | 42.92598 | -132.02306 | 33993 ft | 473 kts | 301° |
| 2026-05-04 19:18 | 42.95971 | -132.09946 | 33993 ft | 473 kts | 301° |
| 2026-05-04 19:18 | 42.99356 | -132.17631 | 33993 ft | 473 kts | 301° |
| 2026-05-04 19:19 | 43.02743 | -132.25345 | 33993 ft | 473 kts | 301° |
| 2026-05-04 19:19 | 43.06123 | -132.33057 | 33993 ft | 473 kts | 301° |
| 2026-05-04 19:20 | 43.09490 | -132.40764 | 33992 ft | 473 kts | 301° |
| 2026-05-04 19:20 | 43.12854 | -132.48436 | 33993 ft | 473 kts | 301° |
| 2026-05-04 19:21 | 43.16232 | -132.56148 | 33993 ft | 473 kts | 301° |
| 2026-05-04 19:21 | 43.19604 | -132.63899 | 33994 ft | 473 kts | 301° |
| 2026-05-04 19:22 | 43.22949 | -132.71649 | 33993 ft | 473 kts | 300° |
| 2026-05-04 19:22 | 43.26286 | -132.79411 | 33993 ft | 473 kts | 300° |
| 2026-05-04 19:23 | 43.29602 | -132.87134 | 33993 ft | 473 kts | 300° |
| 2026-05-04 19:23 | 43.32941 | -132.94920 | 33993 ft | 473 kts | 300° |
| 2026-05-04 19:24 | 43.36272 | -133.02708 | 33993 ft | 473 kts | 300° |
| 2026-05-04 19:24 | 43.39574 | -133.10449 | 33993 ft | 473 kts | 300° |
| 2026-05-04 19:25 | 43.42908 | -133.18286 | 33993 ft | 473 kts | 300° |
| 2026-05-04 19:25 | 43.46212 | -133.26073 | 33993 ft | 473 kts | 300° |
| 2026-05-04 19:26 | 43.49507 | -133.33858 | 33993 ft | 473 kts | 300° |
| 2026-05-04 19:26 | 43.52828 | -133.41727 | 33993 ft | 473 kts | 300° |
| 2026-05-04 19:27 | 43.56115 | -133.49538 | 33993 ft | 473 kts | 300° |
| 2026-05-04 19:27 | 43.59392 | -133.57344 | 33993 ft | 473 kts | 300° |
| 2026-05-04 19:28 | 43.62689 | -133.65221 | 33993 ft | 473 kts | 300° |
| 2026-05-04 19:28 | 43.65951 | -133.73059 | 33993 ft | 473 kts | 300° |
| 2026-05-04 19:29 | 43.69223 | -133.80940 | 33993 ft | 473 kts | 300° |
| 2026-05-04 19:29 | 43.72471 | -133.88771 | 33993 ft | 473 kts | 300° |
| 2026-05-04 19:30 | 43.75755 | -133.96707 | 33993 ft | 473 kts | 300° |
| 2026-05-04 19:30 | 43.79003 | -134.04576 | 33993 ft | 473 kts | 300° |
| 2026-05-04 19:31 | 43.82258 | -134.12479 | 33993 ft | 473 kts | 300° |
| 2026-05-04 19:31 | 43.85494 | -134.20361 | 33993 ft | 473 kts | 300° |
| 2026-05-04 19:32 | 43.88734 | -134.28275 | 33993 ft | 473 kts | 300° |
| 2026-05-04 19:32 | 43.91967 | -134.36191 | 33993 ft | 473 kts | 300° |
| 2026-05-04 19:33 | 43.95201 | -134.44132 | 33992 ft | 473 kts | 300° |
| 2026-05-04 19:33 | 43.98432 | -134.52087 | 33992 ft | 473 kts | 300° |
| 2026-05-04 19:34 | 44.01648 | -134.60030 | 33992 ft | 473 kts | 300° |
| 2026-05-04 19:34 | 44.04847 | -134.67956 | 33993 ft | 473 kts | 299° |
| 2026-05-04 19:35 | 44.08058 | -134.75960 | 33993 ft | 473 kts | 299° |
| 2026-05-04 19:35 | 44.11250 | -134.83908 | 33993 ft | 473 kts | 299° |
| 2026-05-04 19:36 | 44.14483 | -134.91913 | 33993 ft | 473 kts | 299° |
| 2026-05-04 19:36 | 44.17679 | -134.99878 | 33993 ft | 473 kts | 299° |
| 2026-05-04 19:37 | 44.20861 | -135.07854 | 33993 ft | 473 kts | 299° |
| 2026-05-04 19:37 | 44.24033 | -135.15837 | 33993 ft | 473 kts | 299° |
| 2026-05-04 19:38 | 44.27222 | -135.23891 | 33993 ft | 473 kts | 299° |
| 2026-05-04 19:38 | 44.30379 | -135.31885 | 33993 ft | 473 kts | 299° |
| 2026-05-04 19:39 | 44.33548 | -135.39934 | 33993 ft | 473 kts | 299° |
| 2026-05-04 19:39 | 44.36695 | -135.47952 | 33993 ft | 473 kts | 299° |
| 2026-05-04 19:40 | 44.39860 | -135.56036 | 33993 ft | 473 kts | 299° |
| 2026-05-04 19:40 | 44.43003 | -135.64088 | 33993 ft | 473 kts | 299° |
| 2026-05-04 19:41 | 44.46130 | -135.72147 | 33993 ft | 473 kts | 298° |
| 2026-05-04 19:41 | 44.49265 | -135.80249 | 33993 ft | 473 kts | 298° |
| 2026-05-04 19:42 | 44.52395 | -135.88350 | 33993 ft | 473 kts | 298° |
| 2026-05-04 19:42 | 44.55503 | -135.96410 | 33993 ft | 473 kts | 298° |
| 2026-05-04 19:43 | 44.58619 | -136.04511 | 33993 ft | 473 kts | 298° |
| 2026-05-04 19:43 | 44.61739 | -136.12645 | 33993 ft | 473 kts | 298° |
| 2026-05-04 19:44 | 44.64832 | -136.20734 | 33993 ft | 473 kts | 298° |
| 2026-05-04 19:44 | 44.67939 | -136.28879 | 33993 ft | 473 kts | 298° |
| 2026-05-04 19:45 | 44.71027 | -136.37001 | 33993 ft | 473 kts | 298° |
| 2026-05-04 19:45 | 44.74119 | -136.45157 | 33993 ft | 473 kts | 298° |
| 2026-05-04 19:46 | 44.77197 | -136.53301 | 33993 ft | 473 kts | 298° |
| 2026-05-04 19:46 | 44.80284 | -136.61490 | 33992 ft | 473 kts | 298° |
| 2026-05-04 19:47 | 44.83353 | -136.69670 | 33993 ft | 473 kts | 297° |
| 2026-05-04 19:47 | 44.86417 | -136.77875 | 33993 ft | 473 kts | 297° |
| 2026-05-04 19:48 | 44.89460 | -136.86035 | 33993 ft | 473 kts | 297° |
| 2026-05-04 19:48 | 44.92524 | -136.94267 | 33993 ft | 473 kts | 297° |
| 2026-05-04 19:49 | 44.95560 | -137.02444 | 33993 ft | 473 kts | 297° |
| 2026-05-04 19:49 | 44.98599 | -137.10655 | 33993 ft | 473 kts | 297° |
| 2026-05-04 19:50 | 45.01630 | -137.18867 | 33993 ft | 473 kts | 297° |
| 2026-05-04 19:50 | 45.04669 | -137.27125 | 33993 ft | 473 kts | 297° |
| 2026-05-04 19:51 | 45.07686 | -137.35347 | 33992 ft | 473 kts | 297° |
| 2026-05-04 19:51 | 45.10715 | -137.43625 | 33993 ft | 473 kts | 298° |
| 2026-05-04 19:52 | 45.13746 | -137.51849 | 33993 ft | 473 kts | 298° |
| 2026-05-04 19:52 | 45.16759 | -137.60088 | 33994 ft | 473 kts | 297° |
| 2026-05-04 19:53 | 45.19776 | -137.68399 | 33993 ft | 473 kts | 297° |
| 2026-05-04 19:53 | 45.22747 | -137.76645 | 33993 ft | 473 kts | 297° |
| 2026-05-04 19:54 | 45.25749 | -137.84992 | 33993 ft | 473 kts | 297° |
| 2026-05-04 19:54 | 45.28724 | -137.93280 | 33993 ft | 473 kts | 297° |
| 2026-05-04 19:55 | 45.31696 | -138.01584 | 33993 ft | 473 kts | 297° |
| 2026-05-04 19:55 | 45.34660 | -138.09888 | 33993 ft | 473 kts | 297° |
| 2026-05-04 19:56 | 45.37637 | -138.18253 | 33993 ft | 473 kts | 297° |
| 2026-05-04 19:56 | 45.40585 | -138.26566 | 33993 ft | 473 kts | 297° |
| 2026-05-04 19:57 | 45.43528 | -138.34888 | 33993 ft | 473 kts | 297° |
| 2026-05-04 19:57 | 45.46491 | -138.43289 | 33993 ft | 473 kts | 297° |
| 2026-05-04 19:58 | 45.49424 | -138.51637 | 33993 ft | 473 kts | 297° |
| 2026-05-04 19:58 | 45.52352 | -138.59994 | 33993 ft | 473 kts | 297° |
| 2026-05-04 19:59 | 45.55288 | -138.68405 | 33993 ft | 473 kts | 296° |
| 2026-05-04 19:59 | 45.58195 | -138.76785 | 33993 ft | 473 kts | 296° |
| 2026-05-04 20:00 | 45.61105 | -138.85188 | 33993 ft | 473 kts | 296° |
| 2026-05-04 20:00 | 45.64504 | -138.95020 | 33993 ft | 473 kts | 296° |
| 2026-05-04 20:01 | 45.66915 | -139.02014 | 33993 ft | 473 kts | 296° |
| 2026-05-04 20:01 | 45.69807 | -139.10428 | 33993 ft | 473 kts | 296° |
| 2026-05-04 20:02 | 45.72694 | -139.18852 | 33993 ft | 473 kts | 296° |
| 2026-05-04 20:02 | 45.75573 | -139.27278 | 33993 ft | 473 kts | 296° |
| 2026-05-04 20:03 | 45.78463 | -139.35767 | 33993 ft | 473 kts | 296° |
| 2026-05-04 20:03 | 45.81338 | -139.44241 | 33993 ft | 473 kts | 296° |
| 2026-05-04 20:04 | 45.84192 | -139.52676 | 33992 ft | 473 kts | 296° |
| 2026-05-04 20:04 | 45.87043 | -139.61134 | 33992 ft | 473 kts | 296° |
| 2026-05-04 20:05 | 45.89905 | -139.69661 | 33993 ft | 473 kts | 295° |
| 2026-05-04 20:05 | 45.92738 | -139.78146 | 33993 ft | 473 kts | 295° |
| 2026-05-04 20:06 | 45.95581 | -139.86671 | 33993 ft | 473 kts | 295° |
| 2026-05-04 20:06 | 45.98423 | -139.95167 | 33993 ft | 473 kts | 297° |
| 2026-05-04 20:07 | 46.01651 | -140.03366 | 33994 ft | 473 kts | 303° |
| 2026-05-04 20:07 | 46.05336 | -140.11227 | 33993 ft | 473 kts | 304° |
| 2026-05-04 20:08 | 46.09053 | -140.19008 | 33993 ft | 473 kts | 304° |
| 2026-05-04 20:08 | 46.12761 | -140.26770 | 33993 ft | 473 kts | 304° |
| 2026-05-04 20:09 | 46.16495 | -140.34601 | 33993 ft | 473 kts | 304° |
| 2026-05-04 20:09 | 46.20193 | -140.42418 | 33993 ft | 473 kts | 304° |
| 2026-05-04 20:10 | 46.23875 | -140.50243 | 33993 ft | 473 kts | 304° |
| 2026-05-04 20:10 | 46.27549 | -140.58078 | 33993 ft | 473 kts | 304° |
| 2026-05-04 20:11 | 46.31242 | -140.65977 | 33993 ft | 473 kts | 304° |
| 2026-05-04 20:11 | 46.34899 | -140.73853 | 33993 ft | 473 kts | 303° |
| 2026-05-04 20:12 | 46.38560 | -140.81751 | 33993 ft | 473 kts | 304° |
| 2026-05-04 20:12 | 46.42196 | -140.89604 | 33993 ft | 473 kts | 304° |
| 2026-05-04 20:13 | 46.45850 | -140.97513 | 33993 ft | 473 kts | 304° |
| 2026-05-04 20:13 | 46.49498 | -141.05431 | 33993 ft | 473 kts | 304° |
| 2026-05-04 20:14 | 46.53148 | -141.13374 | 33993 ft | 473 kts | 304° |
| 2026-05-04 20:14 | 46.56792 | -141.21327 | 33993 ft | 473 kts | 304° |
| 2026-05-04 20:15 | 46.60419 | -141.29265 | 33993 ft | 473 kts | 304° |
| 2026-05-04 20:15 | 46.64040 | -141.37212 | 33993 ft | 473 kts | 304° |
| 2026-05-04 20:16 | 46.67660 | -141.45178 | 33993 ft | 473 kts | 304° |
| 2026-05-04 20:16 | 46.71292 | -141.53197 | 33993 ft | 473 kts | 304° |
| 2026-05-04 20:17 | 46.74899 | -141.61180 | 33993 ft | 473 kts | 304° |
| 2026-05-04 20:17 | 46.78495 | -141.69174 | 33993 ft | 473 kts | 303° |
| 2026-05-04 20:18 | 46.82088 | -141.77203 | 33993 ft | 473 kts | 303° |
| 2026-05-04 20:18 | 46.85672 | -141.85220 | 33993 ft | 473 kts | 303° |
| 2026-05-04 20:19 | 46.89253 | -141.93247 | 33993 ft | 473 kts | 303° |
| 2026-05-04 20:19 | 46.92836 | -142.01296 | 33993 ft | 473 kts | 303° |
| 2026-05-04 20:20 | 46.96418 | -142.09366 | 33993 ft | 473 kts | 303° |
| 2026-05-04 20:20 | 46.99982 | -142.17416 | 33993 ft | 473 kts | 303° |
| 2026-05-04 20:21 | 47.03553 | -142.25510 | 33993 ft | 473 kts | 303° |
| 2026-05-04 20:21 | 47.08892 | -142.37650 | 33992 ft | 473 kts | 303° |
| 2026-05-04 20:22 | 47.12445 | -142.45725 | 33993 ft | 473 kts | 303° |
| 2026-05-04 20:22 | 47.15999 | -142.53796 | 33993 ft | 473 kts | 303° |
| 2026-05-04 20:23 | 47.19566 | -142.61954 | 33994 ft | 473 kts | 303° |
| 2026-05-04 20:23 | 47.23073 | -142.70033 | 33993 ft | 473 kts | 302° |
| 2026-05-04 20:24 | 47.26599 | -142.78203 | 33993 ft | 473 kts | 302° |
| 2026-05-04 20:24 | 47.30131 | -142.86397 | 33993 ft | 473 kts | 302° |
| 2026-05-04 20:25 | 47.33631 | -142.94533 | 33993 ft | 473 kts | 302° |
| 2026-05-04 20:25 | 47.37156 | -143.02750 | 33993 ft | 473 kts | 302° |
| 2026-05-04 20:26 | 47.40638 | -143.10890 | 33993 ft | 473 kts | 302° |
| 2026-05-04 20:26 | 47.44143 | -143.19106 | 33993 ft | 473 kts | 302° |
| 2026-05-04 20:27 | 47.47647 | -143.27345 | 33993 ft | 473 kts | 302° |
| 2026-05-04 20:27 | 47.51121 | -143.35538 | 33993 ft | 473 kts | 302° |
| 2026-05-04 20:28 | 47.54617 | -143.43808 | 33993 ft | 474 kts | 302° |
| 2026-05-04 20:28 | 47.58086 | -143.52039 | 33993 ft | 474 kts | 302° |
| 2026-05-04 20:29 | 47.61544 | -143.60271 | 33993 ft | 474 kts | 302° |
| 2026-05-04 20:29 | 47.65011 | -143.68553 | 33993 ft | 474 kts | 301° |
| 2026-05-04 20:30 | 47.68460 | -143.76842 | 33993 ft | 474 kts | 301° |
| 2026-05-04 20:30 | 47.71919 | -143.85167 | 33993 ft | 474 kts | 301° |
| 2026-05-04 20:31 | 47.75353 | -143.93445 | 33993 ft | 474 kts | 301° |
| 2026-05-04 20:31 | 47.78786 | -144.01743 | 33993 ft | 474 kts | 301° |
| 2026-05-04 20:32 | 47.82235 | -144.10104 | 33993 ft | 474 kts | 301° |
| 2026-05-04 20:32 | 47.85659 | -144.18430 | 33993 ft | 474 kts | 301° |
| 2026-05-04 20:33 | 47.89073 | -144.26758 | 33993 ft | 474 kts | 301° |
| 2026-05-04 20:33 | 47.92507 | -144.35158 | 33993 ft | 474 kts | 301° |
| 2026-05-04 20:34 | 47.95905 | -144.43498 | 33992 ft | 474 kts | 301° |
| 2026-05-04 20:34 | 47.99300 | -144.51854 | 33992 ft | 474 kts | 301° |
| 2026-05-04 20:35 | 48.02716 | -144.60292 | 33992 ft | 474 kts | 301° |
| 2026-05-04 20:35 | 48.06090 | -144.68655 | 33993 ft | 474 kts | 301° |
| 2026-05-04 20:36 | 48.09473 | -144.77092 | 33993 ft | 474 kts | 301° |
| 2026-05-04 20:36 | 48.12869 | -144.85521 | 33993 ft | 474 kts | 301° |
| 2026-05-04 20:37 | 48.16261 | -144.93945 | 33993 ft | 474 kts | 301° |
| 2026-05-04 20:37 | 48.19626 | -145.02361 | 33993 ft | 474 kts | 301° |
| 2026-05-04 20:38 | 48.22989 | -145.10814 | 33993 ft | 474 kts | 301° |
| 2026-05-04 20:38 | 48.26333 | -145.19252 | 33993 ft | 473 kts | 301° |
| 2026-05-04 20:39 | 48.29697 | -145.27769 | 33993 ft | 474 kts | 301° |
| 2026-05-04 20:39 | 48.33044 | -145.36273 | 33993 ft | 473 kts | 301° |
| 2026-05-04 20:40 | 48.36384 | -145.44785 | 33993 ft | 473 kts | 301° |
| 2026-05-04 20:40 | 48.39693 | -145.53244 | 33993 ft | 473 kts | 301° |
| 2026-05-04 20:41 | 48.43034 | -145.61813 | 33993 ft | 473 kts | 301° |
| 2026-05-04 20:41 | 48.46341 | -145.70335 | 33993 ft | 473 kts | 300° |
| 2026-05-04 20:42 | 48.49649 | -145.78905 | 33993 ft | 473 kts | 300° |
| 2026-05-04 20:42 | 48.52927 | -145.87407 | 33993 ft | 473 kts | 300° |
| 2026-05-04 20:43 | 48.56229 | -145.95990 | 33993 ft | 473 kts | 300° |
| 2026-05-04 20:43 | 48.59539 | -146.04619 | 33993 ft | 473 kts | 300° |
| 2026-05-04 20:44 | 48.62819 | -146.13194 | 33993 ft | 473 kts | 300° |
| 2026-05-04 20:44 | 48.66092 | -146.21785 | 33993 ft | 473 kts | 300° |
| 2026-05-04 20:45 | 48.69371 | -146.30414 | 33993 ft | 473 kts | 300° |
| 2026-05-04 20:45 | 48.72634 | -146.39029 | 33993 ft | 473 kts | 300° |
| 2026-05-04 20:46 | 48.75901 | -146.47685 | 33993 ft | 473 kts | 300° |
| 2026-05-04 20:46 | 48.79140 | -146.56294 | 33992 ft | 473 kts | 300° |
| 2026-05-04 20:47 | 48.82399 | -146.64984 | 33992 ft | 473 kts | 300° |
| 2026-05-04 20:47 | 48.85633 | -146.73663 | 33993 ft | 473 kts | 299° |
| 2026-05-04 20:48 | 48.88840 | -146.82292 | 33993 ft | 473 kts | 299° |
| 2026-05-04 20:48 | 48.92069 | -146.90999 | 33993 ft | 473 kts | 299° |
| 2026-05-04 20:49 | 48.95298 | -146.99728 | 33993 ft | 473 kts | 299° |
| 2026-05-04 20:49 | 48.98507 | -147.08429 | 33993 ft | 473 kts | 299° |
| 2026-05-04 20:50 | 49.01705 | -147.17129 | 33993 ft | 473 kts | 299° |
| 2026-05-04 20:50 | 49.04923 | -147.25914 | 33993 ft | 473 kts | 299° |
| 2026-05-04 20:51 | 49.08110 | -147.34641 | 33992 ft | 473 kts | 299° |
| 2026-05-04 20:51 | 49.11293 | -147.43370 | 33993 ft | 473 kts | 300° |
| 2026-05-04 20:52 | 49.14515 | -147.52167 | 33993 ft | 473 kts | 299° |
| 2026-05-04 20:52 | 49.17690 | -147.60904 | 33994 ft | 473 kts | 299° |
| 2026-05-04 20:53 | 49.20861 | -147.69702 | 33993 ft | 473 kts | 298° |
| 2026-05-04 20:53 | 49.24010 | -147.78500 | 33993 ft | 473 kts | 298° |
| 2026-05-04 20:54 | 49.27159 | -147.87314 | 33993 ft | 473 kts | 298° |
| 2026-05-04 20:54 | 49.30322 | -147.96187 | 33993 ft | 473 kts | 298° |
| 2026-05-04 20:55 | 49.33454 | -148.05002 | 33993 ft | 473 kts | 298° |
| 2026-05-04 20:55 | 49.36584 | -148.13840 | 33993 ft | 473 kts | 298° |
| 2026-05-04 20:56 | 49.39723 | -148.22734 | 33993 ft | 473 kts | 298° |
| 2026-05-04 20:56 | 49.42834 | -148.31578 | 33993 ft | 473 kts | 298° |
| 2026-05-04 20:57 | 49.45935 | -148.40427 | 33993 ft | 473 kts | 298° |
| 2026-05-04 20:57 | 49.49049 | -148.49339 | 33993 ft | 473 kts | 298° |
| 2026-05-04 20:58 | 49.52158 | -148.58270 | 33993 ft | 473 kts | 298° |
| 2026-05-04 20:58 | 49.55238 | -148.67154 | 33993 ft | 473 kts | 298° |
| 2026-05-04 20:59 | 49.58322 | -148.76105 | 33993 ft | 473 kts | 298° |
| 2026-05-04 20:59 | 49.61388 | -148.85022 | 33993 ft | 473 kts | 298° |
| 2026-05-04 21:00 | 49.64474 | -148.94019 | 33993 ft | 473 kts | 298° |
| 2026-05-04 21:00 | 49.67535 | -149.02968 | 33993 ft | 473 kts | 298° |
| 2026-05-04 21:01 | 49.70586 | -149.11922 | 33993 ft | 473 kts | 298° |
| 2026-05-04 21:01 | 49.73646 | -149.20932 | 33993 ft | 473 kts | 298° |
| 2026-05-04 21:02 | 49.76686 | -149.29913 | 33993 ft | 473 kts | 298° |
| 2026-05-04 21:02 | 49.79715 | -149.38898 | 33993 ft | 473 kts | 298° |
| 2026-05-04 21:03 | 49.82742 | -149.47906 | 33993 ft | 473 kts | 298° |
| 2026-05-04 21:03 | 49.85771 | -149.56953 | 33992 ft | 473 kts | 298° |
| 2026-05-04 21:04 | 49.88795 | -149.66022 | 33992 ft | 473 kts | 297° |
| 2026-05-04 21:04 | 49.91799 | -149.75093 | 33993 ft | 473 kts | 297° |
| 2026-05-04 21:05 | 49.94777 | -149.84106 | 33993 ft | 473 kts | 297° |
| 2026-05-04 21:05 | 49.97713 | -149.93242 | 33992 ft | 473 kts | 294° |
| 2026-05-04 21:06 | 50.00117 | -150.02756 | 33992 ft | 473 kts | 288° |
| 2026-05-04 21:06 | 50.01857 | -150.12614 | 33992 ft | 473 kts | 283° |
| 2026-05-04 21:07 | 50.03283 | -150.22539 | 33992 ft | 473 kts | 282° |
| 2026-05-04 21:07 | 50.04696 | -150.32523 | 33992 ft | 473 kts | 283° |
| 2026-05-04 21:08 | 50.06115 | -150.42551 | 33992 ft | 473 kts | 283° |
| 2026-05-04 21:08 | 50.07514 | -150.52473 | 33992 ft | 473 kts | 283° |
| 2026-05-04 21:09 | 50.08921 | -150.62503 | 33992 ft | 473 kts | 283° |
| 2026-05-04 21:09 | 50.10310 | -150.72472 | 33993 ft | 473 kts | 282° |
| 2026-05-04 21:10 | 50.11725 | -150.82500 | 33993 ft | 473 kts | 282° |
| 2026-05-04 21:10 | 50.13113 | -150.92461 | 33993 ft | 473 kts | 282° |
| 2026-05-04 21:11 | 50.14491 | -151.02506 | 33993 ft | 473 kts | 282° |
| 2026-05-04 21:11 | 50.15848 | -151.12491 | 33993 ft | 473 kts | 282° |
| 2026-05-04 21:12 | 50.17204 | -151.22556 | 33993 ft | 473 kts | 282° |
| 2026-05-04 21:12 | 50.18541 | -151.32542 | 33993 ft | 473 kts | 282° |
| 2026-05-04 21:13 | 50.19879 | -151.42618 | 33993 ft | 473 kts | 282° |
| 2026-05-04 21:13 | 50.21199 | -151.52631 | 33993 ft | 473 kts | 282° |
| 2026-05-04 21:14 | 50.22510 | -151.62639 | 33994 ft | 473 kts | 282° |
| 2026-05-04 21:14 | 50.23824 | -151.72759 | 33993 ft | 473 kts | 281° |
| 2026-05-04 21:15 | 50.25110 | -151.82754 | 33993 ft | 473 kts | 281° |
| 2026-05-04 21:15 | 50.26406 | -151.92879 | 33993 ft | 473 kts | 281° |
| 2026-05-04 21:16 | 50.27684 | -152.02930 | 33993 ft | 473 kts | 281° |
| 2026-05-04 21:16 | 50.28951 | -152.12962 | 33993 ft | 473 kts | 281° |
| 2026-05-04 21:17 | 50.30220 | -152.23082 | 33993 ft | 473 kts | 281° |
| 2026-05-04 21:17 | 50.31471 | -152.33138 | 33993 ft | 473 kts | 281° |
| 2026-05-04 21:18 | 50.32715 | -152.43208 | 33993 ft | 473 kts | 281° |
| 2026-05-04 21:18 | 50.33959 | -152.53360 | 33993 ft | 473 kts | 281° |
| 2026-05-04 21:19 | 50.35185 | -152.63438 | 33993 ft | 473 kts | 281° |
| 2026-05-04 21:19 | 50.36402 | -152.73540 | 33993 ft | 473 kts | 280° |
| 2026-05-04 21:20 | 50.37607 | -152.83626 | 33993 ft | 473 kts | 280° |
| 2026-05-04 21:20 | 50.38806 | -152.93730 | 33993 ft | 473 kts | 280° |
| 2026-05-04 21:21 | 50.40006 | -153.03900 | 33993 ft | 473 kts | 280° |
| 2026-05-04 21:21 | 50.41185 | -153.13980 | 33993 ft | 473 kts | 280° |
| 2026-05-04 21:22 | 50.42364 | -153.24139 | 33993 ft | 473 kts | 280° |
| 2026-05-04 21:22 | 50.43528 | -153.34248 | 33993 ft | 473 kts | 280° |
| 2026-05-04 21:23 | 50.44689 | -153.44414 | 33993 ft | 473 kts | 280° |
| 2026-05-04 21:23 | 50.45838 | -153.54550 | 33993 ft | 473 kts | 280° |
| 2026-05-04 21:24 | 50.46976 | -153.64679 | 33993 ft | 473 kts | 280° |
| 2026-05-04 21:24 | 50.48103 | -153.74818 | 33993 ft | 473 kts | 279° |
| 2026-05-04 21:25 | 50.49231 | -153.85040 | 33993 ft | 473 kts | 279° |
| 2026-05-04 21:25 | 50.50344 | -153.95207 | 33993 ft | 473 kts | 279° |
| 2026-05-04 21:26 | 50.51443 | -154.05327 | 33993 ft | 473 kts | 279° |
| 2026-05-04 21:26 | 50.52544 | -154.15540 | 33993 ft | 473 kts | 279° |
| 2026-05-04 21:27 | 50.53633 | -154.25737 | 33993 ft | 473 kts | 279° |
| 2026-05-04 21:27 | 50.54706 | -154.35869 | 33993 ft | 473 kts | 279° |
| 2026-05-04 21:28 | 50.55778 | -154.46074 | 33993 ft | 473 kts | 279° |
| 2026-05-04 21:28 | 50.56840 | -154.56280 | 33993 ft | 473 kts | 279° |
| 2026-05-04 21:29 | 50.57892 | -154.66481 | 33993 ft | 473 kts | 279° |
| 2026-05-04 21:29 | 50.58930 | -154.76656 | 33993 ft | 473 kts | 279° |
| 2026-05-04 21:30 | 50.59964 | -154.86890 | 33993 ft | 473 kts | 279° |
| 2026-05-04 21:30 | 50.60983 | -154.97044 | 33993 ft | 473 kts | 279° |
| 2026-05-04 21:31 | 50.62508 | -155.12405 | 33993 ft | 473 kts | 279° |
| 2026-05-04 21:32 | 50.63508 | -155.22600 | 33993 ft | 473 kts | 279° |
| 2026-05-04 21:32 | 50.64505 | -155.32858 | 33993 ft | 473 kts | 279° |
| 2026-05-04 21:33 | 50.65487 | -155.43065 | 33993 ft | 473 kts | 279° |
| 2026-05-04 21:33 | 50.66465 | -155.53317 | 33993 ft | 473 kts | 279° |
| 2026-05-04 21:34 | 50.67431 | -155.63541 | 33993 ft | 473 kts | 279° |
| 2026-05-04 21:34 | 50.68386 | -155.73776 | 33993 ft | 473 kts | 278° |
| 2026-05-04 21:35 | 50.69332 | -155.84007 | 33993 ft | 473 kts | 278° |
| 2026-05-04 21:35 | 50.70272 | -155.94270 | 33993 ft | 473 kts | 278° |
| 2026-05-04 21:36 | 50.71201 | -156.04511 | 33993 ft | 473 kts | 278° |
| 2026-05-04 21:36 | 50.72124 | -156.14775 | 33993 ft | 473 kts | 278° |
| 2026-05-04 21:37 | 50.73038 | -156.25049 | 33993 ft | 473 kts | 278° |
| 2026-05-04 21:37 | 50.73944 | -156.35339 | 33993 ft | 473 kts | 278° |
| 2026-05-04 21:38 | 50.74838 | -156.45604 | 33993 ft | 473 kts | 278° |
| 2026-05-04 21:38 | 50.75723 | -156.55865 | 33992 ft | 473 kts | 278° |
| 2026-05-04 21:39 | 50.76600 | -156.66144 | 33992 ft | 473 kts | 277° |
| 2026-05-04 21:39 | 50.77470 | -156.76471 | 33993 ft | 473 kts | 277° |
| 2026-05-04 21:40 | 50.78326 | -156.86749 | 33993 ft | 473 kts | 277° |
| 2026-05-04 21:40 | 50.79170 | -156.96976 | 33993 ft | 473 kts | 277° |
| 2026-05-04 21:41 | 50.80015 | -157.07327 | 33993 ft | 473 kts | 277° |
| 2026-05-04 21:41 | 50.80844 | -157.17593 | 33993 ft | 473 kts | 277° |
| 2026-05-04 21:42 | 50.81667 | -157.27896 | 33993 ft | 473 kts | 277° |
| 2026-05-04 21:42 | 50.82480 | -157.38187 | 33993 ft | 473 kts | 277° |
| 2026-05-04 21:43 | 50.83284 | -157.48497 | 33992 ft | 473 kts | 277° |
| 2026-05-04 21:43 | 50.84080 | -157.58810 | 33992 ft | 473 kts | 277° |
| 2026-05-04 21:44 | 50.84867 | -157.69139 | 33993 ft | 473 kts | 276° |
| 2026-05-04 21:44 | 50.85643 | -157.79481 | 33993 ft | 473 kts | 276° |
| 2026-05-04 21:45 | 50.86407 | -157.89763 | 33993 ft | 473 kts | 276° |
| 2026-05-04 21:45 | 50.87167 | -158.00105 | 33993 ft | 473 kts | 276° |
| 2026-05-04 21:46 | 50.87920 | -158.10474 | 33993 ft | 473 kts | 276° |
| 2026-05-04 21:46 | 50.88658 | -158.20778 | 33993 ft | 473 kts | 276° |
| 2026-05-04 21:47 | 50.89393 | -158.31154 | 33993 ft | 473 kts | 276° |
| 2026-05-04 21:47 | 50.90113 | -158.41467 | 33992 ft | 473 kts | 276° |
| 2026-05-04 21:48 | 50.90825 | -158.51781 | 33992 ft | 473 kts | 276° |
| 2026-05-04 21:48 | 50.91530 | -158.62143 | 33992 ft | 473 kts | 276° |
| 2026-05-04 21:49 | 50.92225 | -158.72505 | 33993 ft | 473 kts | 276° |
| 2026-05-04 21:49 | 50.92910 | -158.82863 | 33993 ft | 473 kts | 276° |
| 2026-05-04 21:50 | 50.93586 | -158.93219 | 33993 ft | 473 kts | 276° |
| 2026-05-04 21:50 | 50.94251 | -159.03538 | 33993 ft | 473 kts | 276° |
| 2026-05-04 21:51 | 50.94912 | -159.13947 | 33993 ft | 473 kts | 276° |
| 2026-05-04 21:51 | 50.95559 | -159.24272 | 33993 ft | 473 kts | 276° |
| 2026-05-04 21:52 | 50.96199 | -159.34651 | 33992 ft | 473 kts | 276° |
| 2026-05-04 21:52 | 50.96831 | -159.45047 | 33992 ft | 473 kts | 276° |
| 2026-05-04 21:53 | 50.97451 | -159.55383 | 33992 ft | 473 kts | 276° |
| 2026-05-04 21:53 | 50.98062 | -159.65749 | 33992 ft | 473 kts | 275° |
| 2026-05-04 21:54 | 50.98661 | -159.76096 | 33993 ft | 473 kts | 275° |
| 2026-05-04 21:54 | 50.99252 | -159.86482 | 33993 ft | 473 kts | 275° |
| 2026-05-04 21:55 | 50.99736 | -159.96876 | 33992 ft | 473 kts | 271° |
| 2026-05-04 21:55 | 50.99603 | -160.07340 | 33992 ft | 473 kts | 265° |
| 2026-05-04 21:56 | 50.99027 | -160.17725 | 33992 ft | 473 kts | 265° |
| 2026-05-04 21:56 | 50.98416 | -160.28108 | 33993 ft | 473 kts | 265° |
| 2026-05-04 21:57 | 50.97803 | -160.38484 | 33992 ft | 473 kts | 265° |
| 2026-05-04 21:57 | 50.97185 | -160.48837 | 33992 ft | 473 kts | 265° |
| 2026-05-04 21:58 | 50.96558 | -160.59230 | 33992 ft | 473 kts | 265° |
| 2026-05-04 21:58 | 50.95928 | -160.69534 | 33993 ft | 473 kts | 264° |
| 2026-05-04 21:59 | 50.95284 | -160.79936 | 33993 ft | 473 kts | 264° |
| 2026-05-04 21:59 | 50.94632 | -160.90305 | 33993 ft | 473 kts | 264° |
| 2026-05-04 22:00 | 50.93973 | -161.00635 | 33993 ft | 473 kts | 264° |
| 2026-05-04 22:00 | 50.93302 | -161.10986 | 33993 ft | 473 kts | 264° |
| 2026-05-04 22:01 | 50.92623 | -161.21324 | 33993 ft | 473 kts | 264° |
| 2026-05-04 22:01 | 50.91932 | -161.31696 | 33993 ft | 473 kts | 264° |
| 2026-05-04 22:02 | 50.91234 | -161.42036 | 33992 ft | 473 kts | 264° |
| 2026-05-04 22:02 | 50.90524 | -161.52414 | 33992 ft | 473 kts | 264° |
| 2026-05-04 22:03 | 50.89810 | -161.62714 | 33992 ft | 473 kts | 264° |
| 2026-05-04 22:03 | 50.89082 | -161.73106 | 33993 ft | 473 kts | 263° |
| 2026-05-04 22:04 | 50.88348 | -161.83443 | 33993 ft | 473 kts | 263° |
| 2026-05-04 22:04 | 50.87609 | -161.93723 | 33993 ft | 473 kts | 263° |
| 2026-05-04 22:05 | 50.86856 | -162.04039 | 33993 ft | 473 kts | 263° |
| 2026-05-04 22:05 | 50.86092 | -162.14400 | 33993 ft | 473 kts | 263° |
| 2026-05-04 22:06 | 50.85320 | -162.24719 | 33993 ft | 473 kts | 263° |
| 2026-05-04 22:06 | 50.84541 | -162.35013 | 33993 ft | 473 kts | 263° |
| 2026-05-04 22:07 | 50.83749 | -162.45361 | 33992 ft | 473 kts | 263° |
| 2026-05-04 22:07 | 50.82953 | -162.55627 | 33992 ft | 473 kts | 263° |
| 2026-05-04 22:08 | 50.82141 | -162.65997 | 33992 ft | 473 kts | 262° |
| 2026-05-04 22:08 | 50.81325 | -162.76311 | 33993 ft | 473 kts | 263° |
| 2026-05-04 22:09 | 50.80503 | -162.86589 | 33993 ft | 473 kts | 263° |
| 2026-05-04 22:09 | 50.79672 | -162.96838 | 33993 ft | 473 kts | 262° |
| 2026-05-04 22:10 | 50.78823 | -163.07194 | 33993 ft | 473 kts | 262° |
| 2026-05-04 22:10 | 50.77971 | -163.17468 | 33993 ft | 473 kts | 262° |
| 2026-05-04 22:11 | 50.77107 | -163.27774 | 33993 ft | 473 kts | 262° |
| 2026-05-04 22:11 | 50.76239 | -163.38011 | 33993 ft | 473 kts | 262° |
| 2026-05-04 22:12 | 50.75359 | -163.48296 | 33993 ft | 473 kts | 262° |
| 2026-05-04 22:12 | 50.74319 | -163.60292 | 33992 ft | 473 kts | 262° |
| 2026-05-04 22:13 | 50.73572 | -163.68829 | 33993 ft | 473 kts | 262° |
| 2026-05-04 22:13 | 50.72669 | -163.79074 | 33993 ft | 473 kts | 262° |
| 2026-05-04 22:14 | 50.71755 | -163.89327 | 33993 ft | 473 kts | 262° |
| 2026-05-04 22:14 | 50.70830 | -163.99591 | 33993 ft | 473 kts | 262° |
| 2026-05-04 22:15 | 50.69891 | -164.09901 | 33993 ft | 473 kts | 262° |
| 2026-05-04 22:15 | 50.68950 | -164.20128 | 33993 ft | 473 kts | 262° |
| 2026-05-04 22:16 | 50.67998 | -164.30362 | 33993 ft | 473 kts | 262° |
| 2026-05-04 22:16 | 50.67036 | -164.40605 | 33993 ft | 473 kts | 262° |
| 2026-05-04 22:17 | 50.66069 | -164.50810 | 33993 ft | 473 kts | 262° |
| 2026-05-04 22:17 | 50.65085 | -164.61096 | 33993 ft | 473 kts | 262° |
| 2026-05-04 22:18 | 50.64103 | -164.71274 | 33993 ft | 473 kts | 261° |
| 2026-05-04 22:18 | 50.63108 | -164.81496 | 33993 ft | 473 kts | 261° |
| 2026-05-04 22:19 | 50.62100 | -164.91760 | 33993 ft | 473 kts | 261° |
| 2026-05-04 22:19 | 50.61090 | -165.01923 | 33993 ft | 473 kts | 261° |
| 2026-05-04 22:20 | 50.60066 | -165.12137 | 33993 ft | 473 kts | 261° |
| 2026-05-04 22:20 | 50.59033 | -165.22342 | 33993 ft | 473 kts | 261° |
| 2026-05-04 22:21 | 50.57985 | -165.32603 | 33993 ft | 473 kts | 261° |
| 2026-05-04 22:21 | 50.56937 | -165.42773 | 33993 ft | 473 kts | 261° |
| 2026-05-04 22:22 | 50.55878 | -165.52966 | 33993 ft | 473 kts | 261° |
| 2026-05-04 22:22 | 50.54812 | -165.63132 | 33993 ft | 473 kts | 261° |
| 2026-05-04 22:23 | 50.53738 | -165.73299 | 33993 ft | 473 kts | 260° |
| 2026-05-04 22:23 | 50.52651 | -165.83507 | 33993 ft | 473 kts | 260° |
| 2026-05-04 22:24 | 50.51562 | -165.93642 | 33993 ft | 473 kts | 260° |
| 2026-05-04 22:24 | 50.50458 | -166.03807 | 33993 ft | 473 kts | 260° |
| 2026-05-04 22:25 | 50.49340 | -166.14027 | 33993 ft | 473 kts | 260° |
| 2026-05-04 22:25 | 50.48222 | -166.24155 | 33993 ft | 473 kts | 260° |
| 2026-05-04 22:26 | 50.47086 | -166.34355 | 33993 ft | 473 kts | 260° |
| 2026-05-04 22:26 | 50.45951 | -166.44466 | 33993 ft | 473 kts | 260° |
| 2026-05-04 22:27 | 50.44805 | -166.54593 | 33993 ft | 473 kts | 260° |
| 2026-05-04 22:27 | 50.43644 | -166.64763 | 33993 ft | 473 kts | 260° |
| 2026-05-04 22:28 | 50.42479 | -166.74924 | 33993 ft | 473 kts | 259° |
| 2026-05-04 22:28 | 50.41309 | -166.85030 | 33993 ft | 473 kts | 259° |
| 2026-05-04 22:29 | 50.40131 | -166.95123 | 33993 ft | 473 kts | 259° |
| 2026-05-04 22:29 | 50.38939 | -167.05243 | 33993 ft | 473 kts | 259° |
| 2026-05-04 22:30 | 50.37731 | -167.15414 | 33993 ft | 473 kts | 259° |
| 2026-05-04 22:30 | 50.36527 | -167.25478 | 33993 ft | 473 kts | 259° |
| 2026-05-04 22:31 | 50.35309 | -167.35579 | 33993 ft | 473 kts | 259° |
| 2026-05-04 22:31 | 50.34077 | -167.45717 | 33993 ft | 473 kts | 259° |
| 2026-05-04 22:32 | 50.32843 | -167.55789 | 33993 ft | 473 kts | 259° |
| 2026-05-04 22:32 | 50.31595 | -167.65906 | 33993 ft | 473 kts | 258° |
| 2026-05-04 22:33 | 50.30352 | -167.75931 | 33993 ft | 473 kts | 258° |
| 2026-05-04 22:33 | 50.29093 | -167.86008 | 33993 ft | 473 kts | 258° |
| 2026-05-04 22:34 | 50.27824 | -167.96069 | 33993 ft | 473 kts | 258° |
| 2026-05-04 22:34 | 50.26536 | -168.06206 | 33993 ft | 473 kts | 258° |
| 2026-05-04 22:35 | 50.25251 | -168.16242 | 33993 ft | 473 kts | 258° |
| 2026-05-04 22:35 | 50.23954 | -168.26296 | 33993 ft | 473 kts | 258° |
| 2026-05-04 22:36 | 50.22653 | -168.36316 | 33993 ft | 473 kts | 258° |
| 2026-05-04 22:36 | 50.21340 | -168.46349 | 33993 ft | 473 kts | 258° |
| 2026-05-04 22:37 | 50.20009 | -168.56453 | 33993 ft | 473 kts | 258° |
| 2026-05-04 22:37 | 50.18678 | -168.66479 | 33994 ft | 473 kts | 258° |
| 2026-05-04 22:38 | 50.17347 | -168.76463 | 33993 ft | 473 kts | 258° |
| 2026-05-04 22:38 | 50.15993 | -168.86537 | 33993 ft | 473 kts | 258° |
| 2026-05-04 22:39 | 50.14642 | -168.96507 | 33993 ft | 473 kts | 258° |
| 2026-05-04 22:39 | 50.13277 | -169.06506 | 33993 ft | 473 kts | 258° |
| 2026-05-04 22:40 | 50.11903 | -169.16509 | 33993 ft | 473 kts | 258° |
| 2026-05-04 22:40 | 50.10511 | -169.26566 | 33993 ft | 473 kts | 258° |
| 2026-05-04 22:41 | 50.09120 | -169.36545 | 33993 ft | 473 kts | 258° |
| 2026-05-04 22:41 | 50.07719 | -169.46524 | 33994 ft | 473 kts | 258° |
| 2026-05-04 22:42 | 50.06314 | -169.56467 | 33994 ft | 473 kts | 258° |
| 2026-05-04 22:42 | 50.04889 | -169.66472 | 33994 ft | 473 kts | 257° |
| 2026-05-04 22:43 | 50.03461 | -169.76445 | 33993 ft | 473 kts | 257° |
| 2026-05-04 22:43 | 50.02025 | -169.86368 | 33993 ft | 473 kts | 257° |
| 2026-05-04 22:44 | 50.00607 | -169.96362 | 33992 ft | 473 kts | 259° |
| 2026-05-04 22:44 | 49.99690 | -170.06493 | 33991 ft | 473 kts | 264° |
| 2026-05-04 22:45 | 49.99125 | -170.16632 | 33993 ft | 473 kts | 265° |
| 2026-05-04 22:45 | 49.98269 | -170.31869 | 33993 ft | 473 kts | 265° |
| 2026-05-04 22:46 | 49.97677 | -170.42049 | 33994 ft | 473 kts | 265° |
| 2026-05-04 22:46 | 49.97075 | -170.52193 | 33994 ft | 473 kts | 265° |
| 2026-05-04 22:47 | 49.96461 | -170.62363 | 33994 ft | 473 kts | 265° |
| 2026-05-04 22:47 | 49.95841 | -170.72490 | 33993 ft | 473 kts | 264° |
| 2026-05-04 22:48 | 49.95211 | -170.82657 | 33993 ft | 473 kts | 264° |
| 2026-05-04 22:48 | 49.94574 | -170.92766 | 33993 ft | 473 kts | 264° |
| 2026-05-04 22:49 | 49.93922 | -171.02965 | 33993 ft | 473 kts | 264° |
| 2026-05-04 22:49 | 49.93266 | -171.13081 | 33993 ft | 473 kts | 264° |
| 2026-05-04 22:50 | 49.92601 | -171.23206 | 33993 ft | 473 kts | 264° |
| 2026-05-04 22:50 | 49.91923 | -171.33389 | 33994 ft | 473 kts | 264° |
| 2026-05-04 22:51 | 49.91242 | -171.43488 | 33994 ft | 473 kts | 264° |
| 2026-05-04 22:51 | 49.90548 | -171.53630 | 33994 ft | 473 kts | 264° |
| 2026-05-04 22:52 | 49.89847 | -171.63722 | 33994 ft | 473 kts | 264° |
| 2026-05-04 22:52 | 49.89108 | -171.73845 | 33993 ft | 473 kts | 263° |
| 2026-05-04 22:53 | 49.88369 | -171.83993 | 33993 ft | 473 kts | 263° |
| 2026-05-04 22:53 | 49.87635 | -171.94101 | 33993 ft | 473 kts | 263° |
| 2026-05-04 22:54 | 49.86898 | -172.04179 | 33993 ft | 473 kts | 263° |
| 2026-05-04 22:54 | 49.86151 | -172.14305 | 33993 ft | 473 kts | 263° |
| 2026-05-04 22:55 | 49.85397 | -172.24408 | 33993 ft | 473 kts | 263° |
| 2026-05-04 22:55 | 49.84629 | -172.34561 | 33993 ft | 473 kts | 263° |
| 2026-05-04 22:56 | 49.83861 | -172.44621 | 33992 ft | 473 kts | 263° |
| 2026-05-04 22:56 | 49.83078 | -172.54746 | 33992 ft | 473 kts | 263° |
| 2026-05-04 22:57 | 49.82293 | -172.64790 | 33992 ft | 473 kts | 263° |
| 2026-05-04 22:57 | 49.81493 | -172.74928 | 33993 ft | 473 kts | 263° |
| 2026-05-04 22:58 | 49.80691 | -172.84978 | 33993 ft | 473 kts | 263° |
| 2026-05-04 22:58 | 49.79874 | -172.95085 | 33993 ft | 473 kts | 263° |
| 2026-05-04 22:59 | 49.79051 | -173.05148 | 33993 ft | 473 kts | 263° |
| 2026-05-04 22:59 | 49.78215 | -173.15266 | 33993 ft | 473 kts | 263° |
| 2026-05-04 23:00 | 49.77374 | -173.25325 | 33993 ft | 473 kts | 263° |
| 2026-05-04 23:00 | 49.76521 | -173.35428 | 33993 ft | 473 kts | 263° |
| 2026-05-04 23:01 | 49.75661 | -173.45500 | 33993 ft | 473 kts | 263° |
| 2026-05-04 23:01 | 49.74795 | -173.55539 | 33992 ft | 473 kts | 263° |
| 2026-05-04 23:02 | 49.73919 | -173.65584 | 33992 ft | 473 kts | 262° |
| 2026-05-04 23:02 | 49.73036 | -173.75647 | 33993 ft | 473 kts | 262° |
| 2026-05-04 23:03 | 49.72145 | -173.85677 | 33993 ft | 473 kts | 262° |
| 2026-05-04 23:03 | 49.71244 | -173.95718 | 33993 ft | 473 kts | 262° |
| 2026-05-04 23:04 | 49.70331 | -174.05778 | 33993 ft | 473 kts | 262° |
| 2026-05-04 23:04 | 49.69410 | -174.15837 | 33993 ft | 473 kts | 262° |
| 2026-05-04 23:05 | 49.68481 | -174.25867 | 33993 ft | 473 kts | 262° |
| 2026-05-04 23:05 | 49.67539 | -174.35951 | 33993 ft | 473 kts | 262° |
| 2026-05-04 23:06 | 49.66596 | -174.45946 | 33993 ft | 473 kts | 262° |
| 2026-05-04 23:06 | 49.65641 | -174.55966 | 33993 ft | 473 kts | 262° |
| 2026-05-04 23:07 | 49.64674 | -174.66025 | 33993 ft | 473 kts | 261° |
| 2026-05-04 23:07 | 49.63711 | -174.75980 | 33993 ft | 473 kts | 261° |
| 2026-05-04 23:08 | 49.62732 | -174.85988 | 33993 ft | 473 kts | 261° |
| 2026-05-04 23:08 | 49.61737 | -174.96062 | 33993 ft | 473 kts | 261° |
| 2026-05-04 23:09 | 49.60745 | -175.06009 | 33993 ft | 473 kts | 261° |
| 2026-05-04 23:09 | 49.59734 | -175.16057 | 33993 ft | 473 kts | 261° |
| 2026-05-04 23:10 | 49.58722 | -175.26025 | 33993 ft | 473 kts | 261° |
| 2026-05-04 23:10 | 49.57694 | -175.36050 | 33993 ft | 473 kts | 261° |
| 2026-05-04 23:11 | 49.56667 | -175.45991 | 33993 ft | 473 kts | 261° |
| 2026-05-04 23:11 | 49.55623 | -175.55995 | 33993 ft | 473 kts | 261° |
| 2026-05-04 23:12 | 49.54570 | -175.66013 | 33993 ft | 473 kts | 261° |
| 2026-05-04 23:12 | 49.53514 | -175.75989 | 33993 ft | 473 kts | 261° |
| 2026-05-04 23:13 | 49.52452 | -175.85936 | 33993 ft | 473 kts | 261° |
| 2026-05-04 23:13 | 49.51380 | -175.95882 | 33993 ft | 473 kts | 261° |
| 2026-05-04 23:14 | 49.50291 | -176.05888 | 33993 ft | 473 kts | 261° |
| 2026-05-04 23:14 | 49.49203 | -176.15808 | 33993 ft | 473 kts | 261° |
| 2026-05-04 23:15 | 49.48100 | -176.25783 | 33993 ft | 473 kts | 261° |
| 2026-05-04 23:15 | 49.46988 | -176.35750 | 33993 ft | 473 kts | 261° |
| 2026-05-04 23:16 | 49.45874 | -176.45653 | 33993 ft | 473 kts | 261° |
| 2026-05-04 23:16 | 49.44746 | -176.55606 | 33993 ft | 473 kts | 261° |
| 2026-05-04 23:17 | 49.43611 | -176.65541 | 33993 ft | 473 kts | 259° |
| 2026-05-04 23:17 | 49.42472 | -176.75453 | 33993 ft | 473 kts | 259° |
| 2026-05-04 23:18 | 49.41317 | -176.85429 | 33993 ft | 473 kts | 259° |
| 2026-05-04 23:18 | 49.40163 | -176.95294 | 33993 ft | 473 kts | 259° |
| 2026-05-04 23:19 | 49.38988 | -177.05261 | 33993 ft | 473 kts | 259° |
| 2026-05-04 23:19 | 49.37809 | -177.15192 | 33993 ft | 473 kts | 259° |
| 2026-05-04 23:20 | 49.36627 | -177.25060 | 33993 ft | 473 kts | 259° |
| 2026-05-04 23:20 | 49.35428 | -177.35002 | 33993 ft | 473 kts | 259° |
| 2026-05-04 23:21 | 49.34229 | -177.44861 | 33993 ft | 473 kts | 259° |
| 2026-05-04 23:21 | 49.33016 | -177.54768 | 33993 ft | 474 kts | 259° |
| 2026-05-04 23:22 | 49.31792 | -177.64687 | 33993 ft | 474 kts | 259° |
| 2026-05-04 23:22 | 49.30569 | -177.74550 | 33993 ft | 474 kts | 259° |
| 2026-05-04 23:23 | 49.29330 | -177.84468 | 33993 ft | 474 kts | 259° |
| 2026-05-04 23:23 | 49.28089 | -177.94312 | 33993 ft | 474 kts | 259° |
| 2026-05-04 23:24 | 49.26829 | -178.04228 | 33993 ft | 474 kts | 259° |
| 2026-05-04 23:24 | 49.25573 | -178.14046 | 33993 ft | 474 kts | 259° |
| 2026-05-04 23:25 | 49.24301 | -178.23914 | 33993 ft | 474 kts | 259° |
| 2026-05-04 23:25 | 49.23015 | -178.33824 | 33993 ft | 474 kts | 259° |
| 2026-05-04 23:26 | 49.21728 | -178.43666 | 33993 ft | 474 kts | 259° |
| 2026-05-04 23:26 | 49.20433 | -178.53496 | 33993 ft | 474 kts | 259° |
| 2026-05-04 23:27 | 49.19130 | -178.63332 | 33994 ft | 474 kts | 259° |
| 2026-05-04 23:27 | 49.17813 | -178.73209 | 33993 ft | 474 kts | 258° |
| 2026-05-04 23:28 | 49.16501 | -178.82997 | 33993 ft | 474 kts | 258° |
| 2026-05-04 23:28 | 49.15167 | -178.92854 | 33993 ft | 474 kts | 258° |
| 2026-05-04 23:29 | 49.13833 | -179.02647 | 33993 ft | 474 kts | 258° |
| 2026-05-04 23:29 | 49.12479 | -179.12508 | 33993 ft | 474 kts | 258° |
| 2026-05-04 23:30 | 49.11129 | -179.22284 | 33993 ft | 474 kts | 258° |
| 2026-05-04 23:30 | 49.09763 | -179.32101 | 33993 ft | 474 kts | 258° |
| 2026-05-04 23:31 | 49.08386 | -179.41925 | 33993 ft | 474 kts | 258° |
| 2026-05-04 23:31 | 49.07006 | -179.51709 | 33993 ft | 474 kts | 257° |
| 2026-05-04 23:32 | 49.05621 | -179.61484 | 33993 ft | 474 kts | 257° |
| 2026-05-04 23:32 | 49.04220 | -179.71281 | 33992 ft | 474 kts | 257° |
| 2026-05-04 23:33 | 49.02805 | -179.81074 | 33993 ft | 474 kts | 257° |
| 2026-05-04 23:33 | 49.01389 | -179.90808 | 33993 ft | 474 kts | 257° |
| 2026-05-04 23:34 | 48.99805 | 179.99419 | 33993 ft | 474 kts | 253° |
| 2026-05-04 23:34 | 48.97682 | 179.90024 | 33994 ft | 474 kts | 250° |
| 2026-05-04 23:35 | 48.95399 | 179.80635 | 33993 ft | 474 kts | 250° |
| 2026-05-04 23:35 | 48.93101 | 179.71236 | 33993 ft | 474 kts | 250° |
| 2026-05-04 23:36 | 48.90803 | 179.61862 | 33994 ft | 474 kts | 250° |
| 2026-05-04 23:36 | 48.88498 | 179.52556 | 33993 ft | 474 kts | 249° |
| 2026-05-04 23:37 | 48.86160 | 179.43210 | 33992 ft | 474 kts | 250° |
| 2026-05-04 23:37 | 48.83830 | 179.33874 | 33992 ft | 474 kts | 249° |
| 2026-05-04 23:38 | 48.81509 | 179.24547 | 33993 ft | 474 kts | 249° |
| 2026-05-04 23:38 | 48.79192 | 179.15269 | 33993 ft | 474 kts | 249° |
| 2026-05-04 23:39 | 48.76853 | 179.05951 | 33993 ft | 474 kts | 249° |
| 2026-05-04 23:39 | 48.74507 | 178.96652 | 33993 ft | 474 kts | 249° |
| 2026-05-04 23:40 | 48.72158 | 178.87375 | 33993 ft | 474 kts | 249° |
| 2026-05-04 23:40 | 48.69791 | 178.78065 | 33993 ft | 474 kts | 249° |
| 2026-05-04 23:41 | 48.67418 | 178.68774 | 33993 ft | 474 kts | 249° |
| 2026-05-04 23:41 | 48.65054 | 178.59557 | 33993 ft | 474 kts | 249° |
| 2026-05-04 23:42 | 48.62666 | 178.50281 | 33993 ft | 474 kts | 249° |
| 2026-05-04 23:42 | 48.60280 | 178.41049 | 33993 ft | 474 kts | 249° |
| 2026-05-04 23:43 | 48.57875 | 178.31781 | 33993 ft | 474 kts | 248° |
| 2026-05-04 23:43 | 48.55472 | 178.22530 | 33993 ft | 474 kts | 248° |
| 2026-05-04 23:44 | 48.53066 | 178.13315 | 33993 ft | 474 kts | 248° |
| 2026-05-04 23:44 | 48.50645 | 178.04092 | 33993 ft | 474 kts | 248° |
| 2026-05-04 23:45 | 48.48220 | 177.94899 | 33993 ft | 474 kts | 248° |
| 2026-05-04 23:45 | 48.45789 | 177.85718 | 33993 ft | 474 kts | 248° |
| 2026-05-04 23:46 | 48.43353 | 177.76552 | 33993 ft | 474 kts | 248° |
| 2026-05-04 23:46 | 48.40902 | 177.67369 | 33993 ft | 474 kts | 248° |
| 2026-05-04 23:47 | 48.38443 | 177.58194 | 33993 ft | 474 kts | 248° |
| 2026-05-04 23:47 | 48.35984 | 177.49051 | 33993 ft | 474 kts | 248° |
| 2026-05-04 23:48 | 48.33505 | 177.39871 | 33993 ft | 474 kts | 248° |
| 2026-05-04 23:48 | 48.31033 | 177.30745 | 33993 ft | 474 kts | 248° |
| 2026-05-04 23:49 | 48.28555 | 177.21611 | 33993 ft | 474 kts | 248° |
| 2026-05-04 23:49 | 48.26065 | 177.12485 | 33993 ft | 474 kts | 248° |
| 2026-05-04 23:50 | 48.23556 | 177.03331 | 33993 ft | 474 kts | 248° |
| 2026-05-04 23:50 | 48.21053 | 176.94238 | 33993 ft | 474 kts | 248° |
| 2026-05-04 23:51 | 48.18549 | 176.85179 | 33993 ft | 474 kts | 248° |
| 2026-05-04 23:51 | 48.16015 | 176.76045 | 33993 ft | 474 kts | 248° |
| 2026-05-04 23:52 | 48.13496 | 176.67001 | 33993 ft | 474 kts | 248° |
| 2026-05-04 23:52 | 48.10964 | 176.57944 | 33993 ft | 474 kts | 248° |
| 2026-05-04 23:53 | 48.08411 | 176.48850 | 33994 ft | 474 kts | 248° |
| 2026-05-04 23:53 | 48.05868 | 176.39821 | 33994 ft | 474 kts | 248° |
| 2026-05-04 23:54 | 48.03303 | 176.30743 | 33993 ft | 474 kts | 247° |
| 2026-05-04 23:54 | 48.00763 | 176.21767 | 33993 ft | 474 kts | 247° |
| 2026-05-04 23:55 | 47.98188 | 176.12715 | 33993 ft | 474 kts | 246° |
| 2026-05-04 23:56 | 47.94315 | 175.99176 | 33993 ft | 474 kts | 246° |
| 2026-05-04 23:56 | 47.91724 | 175.90166 | 33993 ft | 474 kts | 246° |
| 2026-05-04 23:57 | 47.89136 | 175.81215 | 33993 ft | 474 kts | 246° |
| 2026-05-04 23:57 | 47.86499 | 175.72223 | 33993 ft | 474 kts | 246° |
| 2026-05-04 23:58 | 47.83882 | 175.63283 | 33993 ft | 474 kts | 246° |
| 2026-05-04 23:58 | 47.81245 | 175.54272 | 33993 ft | 474 kts | 246° |
| 2026-05-04 23:59 | 47.78628 | 175.45346 | 33992 ft | 474 kts | 247° |
| 2026-05-04 23:59 | 47.76004 | 175.36421 | 33992 ft | 474 kts | 247° |
| 2026-05-05 00:00 | 47.73355 | 175.27423 | 33993 ft | 474 kts | 246° |
| 2026-05-05 00:00 | 47.70727 | 175.18526 | 33993 ft | 474 kts | 246° |
| 2026-05-05 00:01 | 47.68075 | 175.09593 | 33993 ft | 474 kts | 246° |
| 2026-05-05 00:01 | 47.65414 | 175.00667 | 33993 ft | 474 kts | 246° |
| 2026-05-05 00:02 | 47.62764 | 174.91815 | 33993 ft | 474 kts | 246° |
| 2026-05-05 00:02 | 47.60083 | 174.82893 | 33993 ft | 474 kts | 246° |
| 2026-05-05 00:03 | 47.57405 | 174.74014 | 33993 ft | 474 kts | 246° |
| 2026-05-05 00:03 | 47.54718 | 174.65134 | 33993 ft | 474 kts | 246° |
| 2026-05-05 00:04 | 47.52030 | 174.56285 | 33993 ft | 474 kts | 246° |
| 2026-05-05 00:04 | 47.49320 | 174.47392 | 33993 ft | 474 kts | 246° |
| 2026-05-05 00:05 | 47.46617 | 174.38557 | 33993 ft | 474 kts | 246° |
| 2026-05-05 00:05 | 47.43911 | 174.29729 | 33993 ft | 474 kts | 245° |
| 2026-05-05 00:06 | 47.41187 | 174.20862 | 33993 ft | 474 kts | 245° |
| 2026-05-05 00:06 | 47.38480 | 174.12089 | 33993 ft | 474 kts | 245° |
| 2026-05-05 00:07 | 47.35746 | 174.03273 | 33993 ft | 474 kts | 245° |
| 2026-05-05 00:07 | 47.33007 | 173.94473 | 33993 ft | 474 kts | 245° |
| 2026-05-05 00:08 | 47.30259 | 173.85675 | 33993 ft | 474 kts | 245° |
| 2026-05-05 00:08 | 47.27495 | 173.76860 | 33993 ft | 474 kts | 245° |
| 2026-05-05 00:09 | 47.24737 | 173.68094 | 33993 ft | 474 kts | 245° |
| 2026-05-05 00:09 | 47.21962 | 173.59303 | 33993 ft | 474 kts | 245° |
| 2026-05-05 00:10 | 47.19190 | 173.50554 | 33993 ft | 474 kts | 245° |
| 2026-05-05 00:10 | 47.16410 | 173.41809 | 33993 ft | 474 kts | 245° |
| 2026-05-05 00:11 | 47.13627 | 173.33083 | 33993 ft | 474 kts | 244° |
| 2026-05-05 00:11 | 47.10834 | 173.24326 | 33993 ft | 474 kts | 244° |
| 2026-05-05 00:12 | 47.08047 | 173.15628 | 33993 ft | 474 kts | 244° |
| 2026-05-05 00:12 | 47.05254 | 173.06955 | 33993 ft | 474 kts | 244° |
| 2026-05-05 00:13 | 47.02423 | 172.98200 | 33993 ft | 474 kts | 244° |
| 2026-05-05 00:13 | 46.99615 | 172.89545 | 33993 ft | 474 kts | 244° |
| 2026-05-05 00:14 | 46.96784 | 172.80847 | 33993 ft | 474 kts | 244° |
| 2026-05-05 00:14 | 46.93944 | 172.72154 | 33993 ft | 474 kts | 244° |
| 2026-05-05 00:15 | 46.91113 | 172.63516 | 33994 ft | 474 kts | 244° |
| 2026-05-05 00:15 | 46.88248 | 172.54845 | 33993 ft | 474 kts | 244° |
| 2026-05-05 00:16 | 46.85373 | 172.46220 | 33993 ft | 474 kts | 244° |
| 2026-05-05 00:16 | 46.82506 | 172.37601 | 33992 ft | 474 kts | 244° |
| 2026-05-05 00:17 | 46.79639 | 172.28967 | 33993 ft | 474 kts | 244° |
| 2026-05-05 00:17 | 46.76768 | 172.20328 | 33993 ft | 474 kts | 244° |
| 2026-05-05 00:18 | 46.73906 | 172.11757 | 33993 ft | 474 kts | 244° |
| 2026-05-05 00:18 | 46.71011 | 172.03125 | 33993 ft | 474 kts | 244° |
| 2026-05-05 00:19 | 46.68116 | 171.94525 | 33993 ft | 474 kts | 244° |
| 2026-05-05 00:19 | 46.65231 | 171.85982 | 33993 ft | 474 kts | 244° |
| 2026-05-05 00:20 | 46.62326 | 171.77408 | 33993 ft | 474 kts | 244° |
| 2026-05-05 00:20 | 46.59414 | 171.68840 | 33993 ft | 474 kts | 244° |
| 2026-05-05 00:21 | 46.56492 | 171.60275 | 33993 ft | 474 kts | 244° |
| 2026-05-05 00:21 | 46.53570 | 171.51733 | 33993 ft | 474 kts | 244° |
| 2026-05-05 00:22 | 46.50631 | 171.43173 | 33993 ft | 474 kts | 244° |
| 2026-05-05 00:22 | 46.47695 | 171.34648 | 33993 ft | 474 kts | 243° |
| 2026-05-05 00:23 | 46.44756 | 171.26114 | 33993 ft | 474 kts | 243° |
| 2026-05-05 00:23 | 46.41815 | 171.17610 | 33993 ft | 474 kts | 243° |
| 2026-05-05 00:24 | 46.38879 | 171.09161 | 33993 ft | 474 kts | 243° |
| 2026-05-05 00:24 | 46.35918 | 171.00671 | 33993 ft | 474 kts | 243° |
| 2026-05-05 00:25 | 46.32944 | 170.92175 | 33993 ft | 474 kts | 243° |
| 2026-05-05 00:25 | 46.29958 | 170.83670 | 33993 ft | 474 kts | 243° |
| 2026-05-05 00:26 | 46.26984 | 170.75229 | 33993 ft | 474 kts | 243° |
| 2026-05-05 00:26 | 46.24002 | 170.66792 | 33993 ft | 474 kts | 243° |
| 2026-05-05 00:27 | 46.20995 | 170.58310 | 33993 ft | 474 kts | 243° |
| 2026-05-05 00:27 | 46.17996 | 170.49881 | 33993 ft | 474 kts | 243° |
| 2026-05-05 00:28 | 46.15005 | 170.41499 | 33993 ft | 474 kts | 243° |
| 2026-05-05 00:28 | 46.11978 | 170.33046 | 33993 ft | 474 kts | 242° |
| 2026-05-05 00:29 | 46.08962 | 170.24626 | 33993 ft | 474 kts | 242° |
| 2026-05-05 00:29 | 46.05951 | 170.16269 | 33993 ft | 474 kts | 242° |
| 2026-05-05 00:30 | 46.02908 | 170.07871 | 33993 ft | 474 kts | 242° |
| 2026-05-05 00:30 | 45.99898 | 169.99509 | 33993 ft | 474 kts | 244° |
| 2026-05-05 00:31 | 45.97071 | 169.90961 | 33993 ft | 474 kts | 244° |
| 2026-05-05 00:31 | 45.94241 | 169.82423 | 33993 ft | 474 kts | 244° |
| 2026-05-05 00:32 | 45.91414 | 169.73949 | 33993 ft | 474 kts | 244° |
| 2026-05-05 00:32 | 45.88538 | 169.65404 | 33993 ft | 474 kts | 244° |
| 2026-05-05 00:33 | 45.85678 | 169.56995 | 33993 ft | 474 kts | 244° |
| 2026-05-05 00:33 | 45.82792 | 169.48498 | 33992 ft | 474 kts | 244° |
| 2026-05-05 00:34 | 45.79925 | 169.40054 | 33992 ft | 474 kts | 244° |
| 2026-05-05 00:34 | 45.77035 | 169.31552 | 33993 ft | 474 kts | 244° |
| 2026-05-05 00:35 | 45.74173 | 169.23132 | 33993 ft | 474 kts | 244° |
| 2026-05-05 00:35 | 45.71291 | 169.14691 | 33993 ft | 474 kts | 244° |
| 2026-05-05 00:36 | 45.68379 | 169.06201 | 33993 ft | 474 kts | 244° |
| 2026-05-05 00:36 | 45.65480 | 168.97783 | 33993 ft | 474 kts | 244° |
| 2026-05-05 00:37 | 45.62582 | 168.89392 | 33993 ft | 474 kts | 244° |
| 2026-05-05 00:37 | 45.59667 | 168.80980 | 33993 ft | 474 kts | 244° |
| 2026-05-05 00:38 | 45.56740 | 168.72559 | 33993 ft | 474 kts | 244° |
| 2026-05-05 00:38 | 45.53813 | 168.64166 | 33993 ft | 474 kts | 244° |
| 2026-05-05 00:39 | 45.50884 | 168.55792 | 33993 ft | 474 kts | 244° |
| 2026-05-05 00:39 | 45.47944 | 168.47415 | 33993 ft | 474 kts | 244° |
| 2026-05-05 00:40 | 45.45005 | 168.39064 | 33993 ft | 474 kts | 244° |
| 2026-05-05 00:40 | 45.42059 | 168.30713 | 33993 ft | 474 kts | 243° |
| 2026-05-05 00:41 | 45.39109 | 168.22356 | 33993 ft | 474 kts | 243° |
| 2026-05-05 00:41 | 45.36148 | 168.14008 | 33993 ft | 474 kts | 243° |
| 2026-05-05 00:42 | 45.33195 | 168.05718 | 33993 ft | 474 kts | 243° |
| 2026-05-05 00:42 | 45.30216 | 167.97382 | 33993 ft | 474 kts | 243° |
| 2026-05-05 00:43 | 45.27235 | 167.89069 | 33993 ft | 474 kts | 243° |
| 2026-05-05 00:43 | 45.24240 | 167.80743 | 33993 ft | 474 kts | 243° |
| 2026-05-05 00:44 | 45.21246 | 167.72444 | 33993 ft | 474 kts | 243° |
| 2026-05-05 00:44 | 45.18256 | 167.64182 | 33993 ft | 474 kts | 243° |
| 2026-05-05 00:45 | 45.15241 | 167.55878 | 33993 ft | 474 kts | 243° |
| 2026-05-05 00:45 | 45.12228 | 167.47601 | 33993 ft | 474 kts | 243° |
| 2026-05-05 00:46 | 45.09217 | 167.39360 | 33994 ft | 474 kts | 243° |
| 2026-05-05 00:46 | 45.06201 | 167.31119 | 33993 ft | 474 kts | 242° |
| 2026-05-05 00:47 | 45.03177 | 167.22861 | 33993 ft | 474 kts | 242° |
| 2026-05-05 00:47 | 45.00151 | 167.14633 | 33993 ft | 474 kts | 242° |
| 2026-05-05 00:48 | 44.97116 | 167.06418 | 33993 ft | 474 kts | 242° |
| 2026-05-05 00:48 | 44.94069 | 166.98200 | 33993 ft | 474 kts | 242° |
| 2026-05-05 00:49 | 44.91023 | 166.90007 | 33993 ft | 474 kts | 242° |
| 2026-05-05 00:49 | 44.87933 | 166.81764 | 33993 ft | 474 kts | 242° |
| 2026-05-05 00:50 | 44.84848 | 166.73593 | 33993 ft | 474 kts | 242° |
| 2026-05-05 00:50 | 44.81779 | 166.65448 | 33993 ft | 474 kts | 242° |
| 2026-05-05 00:51 | 44.78691 | 166.57257 | 33993 ft | 474 kts | 242° |
| 2026-05-05 00:51 | 44.75616 | 166.49114 | 33993 ft | 474 kts | 242° |
| 2026-05-05 00:52 | 44.72522 | 166.40941 | 33993 ft | 474 kts | 242° |
| 2026-05-05 00:52 | 44.69433 | 166.32805 | 33993 ft | 474 kts | 242° |
| 2026-05-05 00:53 | 44.66353 | 166.24686 | 33993 ft | 474 kts | 242° |
| 2026-05-05 00:53 | 44.63241 | 166.16518 | 33993 ft | 474 kts | 242° |
| 2026-05-05 00:54 | 44.60145 | 166.08427 | 33993 ft | 474 kts | 242° |
| 2026-05-05 00:54 | 44.57017 | 166.00284 | 33993 ft | 474 kts | 242° |
| 2026-05-05 00:55 | 44.53903 | 165.92201 | 33993 ft | 474 kts | 242° |
| 2026-05-05 00:55 | 44.50772 | 165.84097 | 33993 ft | 474 kts | 242° |
| 2026-05-05 00:56 | 44.47654 | 165.76050 | 33993 ft | 474 kts | 242° |
| 2026-05-05 00:56 | 44.44515 | 165.67975 | 33993 ft | 474 kts | 242° |
| 2026-05-05 00:57 | 44.41360 | 165.59880 | 33993 ft | 474 kts | 242° |
| 2026-05-05 00:57 | 44.38215 | 165.51833 | 33993 ft | 474 kts | 242° |
| 2026-05-05 00:58 | 44.35042 | 165.43739 | 33993 ft | 474 kts | 242° |
| 2026-05-05 00:58 | 44.31891 | 165.35727 | 33993 ft | 474 kts | 242° |
| 2026-05-05 00:59 | 44.28743 | 165.27719 | 33993 ft | 474 kts | 241° |
| 2026-05-05 00:59 | 44.25563 | 165.19653 | 33993 ft | 474 kts | 241° |
| 2026-05-05 01:00 | 44.22390 | 165.11641 | 33993 ft | 474 kts | 241° |
| 2026-05-05 01:00 | 44.19198 | 165.03610 | 33993 ft | 474 kts | 241° |
| 2026-05-05 01:01 | 44.16021 | 164.95642 | 33993 ft | 474 kts | 241° |
| 2026-05-05 01:01 | 44.12815 | 164.87624 | 33993 ft | 474 kts | 241° |
| 2026-05-05 01:02 | 44.09623 | 164.79665 | 33993 ft | 474 kts | 241° |
| 2026-05-05 01:02 | 44.06412 | 164.71681 | 33993 ft | 474 kts | 241° |
| 2026-05-05 01:03 | 44.03208 | 164.63736 | 33993 ft | 474 kts | 241° |
| 2026-05-05 01:03 | 43.99983 | 164.55762 | 33993 ft | 474 kts | 241° |
| 2026-05-05 01:04 | 43.96767 | 164.47832 | 33994 ft | 474 kts | 241° |
| 2026-05-05 01:04 | 43.91913 | 164.35906 | 33994 ft | 474 kts | 241° |
| 2026-05-05 01:05 | 43.88698 | 164.28027 | 33993 ft | 474 kts | 240° |
| 2026-05-05 01:05 | 43.85434 | 164.20110 | 33993 ft | 474 kts | 240° |
| 2026-05-05 01:06 | 43.82166 | 164.12181 | 33993 ft | 474 kts | 240° |
| 2026-05-05 01:06 | 43.78920 | 164.04311 | 33993 ft | 474 kts | 240° |
| 2026-05-05 01:07 | 43.75648 | 163.96390 | 33993 ft | 474 kts | 240° |
| 2026-05-05 01:07 | 43.72390 | 163.88524 | 33993 ft | 474 kts | 240° |
| 2026-05-05 01:08 | 43.69132 | 163.80678 | 33993 ft | 474 kts | 240° |
| 2026-05-05 01:08 | 43.65854 | 163.72804 | 33993 ft | 474 kts | 240° |
| 2026-05-05 01:09 | 43.62574 | 163.64951 | 33993 ft | 474 kts | 240° |
| 2026-05-05 01:09 | 43.59287 | 163.57097 | 33993 ft | 474 kts | 240° |
| 2026-05-05 01:10 | 43.56004 | 163.49275 | 33993 ft | 474 kts | 240° |
| 2026-05-05 01:10 | 43.52685 | 163.41391 | 33993 ft | 474 kts | 240° |
| 2026-05-05 01:11 | 43.49404 | 163.33617 | 33993 ft | 474 kts | 239° |
| 2026-05-05 01:11 | 43.46097 | 163.25774 | 33993 ft | 474 kts | 239° |
| 2026-05-05 01:12 | 43.42789 | 163.17958 | 33993 ft | 474 kts | 239° |
| 2026-05-05 01:12 | 43.39467 | 163.10144 | 33993 ft | 474 kts | 239° |
| 2026-05-05 01:13 | 43.36164 | 163.02400 | 33993 ft | 474 kts | 239° |
| 2026-05-05 01:13 | 43.32823 | 162.94589 | 33993 ft | 474 kts | 239° |
| 2026-05-05 01:14 | 43.29489 | 162.86818 | 33993 ft | 474 kts | 239° |
| 2026-05-05 01:14 | 43.26149 | 162.79053 | 33993 ft | 474 kts | 239° |
| 2026-05-05 01:15 | 43.22805 | 162.71297 | 33993 ft | 474 kts | 239° |
| 2026-05-05 01:15 | 43.19476 | 162.63599 | 33993 ft | 474 kts | 239° |
| 2026-05-05 01:16 | 43.16117 | 162.55852 | 33993 ft | 474 kts | 239° |
| 2026-05-05 01:16 | 43.12744 | 162.48091 | 33993 ft | 474 kts | 239° |
| 2026-05-05 01:17 | 43.09391 | 162.40398 | 33994 ft | 474 kts | 239° |
| 2026-05-05 01:17 | 43.06002 | 162.32642 | 33993 ft | 474 kts | 239° |
| 2026-05-05 01:18 | 43.02632 | 162.24919 | 33993 ft | 474 kts | 239° |
| 2026-05-05 01:18 | 42.99267 | 162.17244 | 33993 ft | 474 kts | 239° |
| 2026-05-05 01:19 | 42.95883 | 162.09555 | 33993 ft | 474 kts | 239° |
| 2026-05-05 01:19 | 42.92475 | 162.01837 | 33993 ft | 474 kts | 239° |
| 2026-05-05 01:20 | 42.89067 | 161.94145 | 33993 ft | 474 kts | 239° |
| 2026-05-05 01:20 | 42.85651 | 161.86519 | 33993 ft | 475 kts | 238° |
| 2026-05-05 01:21 | 42.82227 | 161.78868 | 33993 ft | 475 kts | 239° |
| 2026-05-05 01:21 | 42.78796 | 161.71194 | 33993 ft | 475 kts | 239° |
| 2026-05-05 01:22 | 42.75368 | 161.63536 | 33993 ft | 475 kts | 239° |
| 2026-05-05 01:22 | 42.71940 | 161.55896 | 33993 ft | 475 kts | 239° |
| 2026-05-05 01:23 | 42.68505 | 161.48259 | 33993 ft | 475 kts | 239° |
| 2026-05-05 01:23 | 42.65074 | 161.40651 | 33993 ft | 475 kts | 239° |
| 2026-05-05 01:24 | 42.61620 | 161.33006 | 33993 ft | 475 kts | 238° |
| 2026-05-05 01:24 | 42.58183 | 161.25394 | 33993 ft | 475 kts | 238° |
| 2026-05-05 01:25 | 42.54722 | 161.17760 | 33993 ft | 475 kts | 238° |
| 2026-05-05 01:25 | 42.51260 | 161.10156 | 33993 ft | 475 kts | 238° |
| 2026-05-05 01:26 | 42.47788 | 161.02553 | 33993 ft | 475 kts | 238° |
| 2026-05-05 01:26 | 42.44326 | 160.94994 | 33993 ft | 476 kts | 238° |
| 2026-05-05 01:27 | 42.40847 | 160.87415 | 33993 ft | 476 kts | 238° |
| 2026-05-05 01:27 | 42.37357 | 160.79833 | 33993 ft | 476 kts | 238° |
| 2026-05-05 01:28 | 42.33862 | 160.72260 | 33993 ft | 476 kts | 238° |
| 2026-05-05 01:28 | 42.30366 | 160.64705 | 33993 ft | 476 kts | 238° |
| 2026-05-05 01:29 | 42.26855 | 160.57135 | 33993 ft | 476 kts | 238° |
| 2026-05-05 01:29 | 42.23360 | 160.49622 | 33993 ft | 476 kts | 238° |
| 2026-05-05 01:30 | 42.19839 | 160.42072 | 33993 ft | 476 kts | 238° |
| 2026-05-05 01:30 | 42.16318 | 160.34543 | 33993 ft | 476 kts | 237° |
| 2026-05-05 01:31 | 42.12781 | 160.26976 | 33991 ft | 480 kts | 237° |
| 2026-05-05 01:31 | 42.09194 | 160.19348 | 33992 ft | 487 kts | 237° |
| 2026-05-05 01:32 | 42.05561 | 160.11652 | 33992 ft | 488 kts | 237° |
| 2026-05-05 01:32 | 42.02141 | 160.03845 | 33992 ft | 488 kts | 242° |
| 2026-05-05 01:33 | 41.99297 | 159.95549 | 33992 ft | 488 kts | 248° |
| 2026-05-05 01:33 | 41.97111 | 159.86990 | 33993 ft | 488 kts | 253° |
| 2026-05-05 01:34 | 41.95144 | 159.78255 | 33993 ft | 488 kts | 253° |
| 2026-05-05 01:34 | 41.93183 | 159.69583 | 33993 ft | 488 kts | 253° |
| 2026-05-05 01:35 | 41.91204 | 159.60906 | 33994 ft | 488 kts | 253° |
| 2026-05-05 01:35 | 41.89207 | 159.52228 | 33993 ft | 488 kts | 253° |
| 2026-05-05 01:36 | 41.87185 | 159.43588 | 33993 ft | 488 kts | 253° |
| 2026-05-05 01:36 | 41.85152 | 159.34877 | 33992 ft | 488 kts | 252° |
| 2026-05-05 01:37 | 41.83146 | 159.26241 | 33993 ft | 488 kts | 252° |
| 2026-05-05 01:37 | 41.81129 | 159.17575 | 33993 ft | 488 kts | 252° |
| 2026-05-05 01:38 | 41.79108 | 159.08929 | 33993 ft | 488 kts | 252° |
| 2026-05-05 01:38 | 41.77070 | 159.00253 | 33993 ft | 488 kts | 252° |
| 2026-05-05 01:39 | 41.75040 | 158.91649 | 33993 ft | 488 kts | 252° |
| 2026-05-05 01:39 | 41.72986 | 158.82970 | 33993 ft | 488 kts | 252° |
| 2026-05-05 01:40 | 41.70939 | 158.74356 | 33993 ft | 488 kts | 252° |
| 2026-05-05 01:40 | 41.68892 | 158.65775 | 33993 ft | 488 kts | 252° |
| 2026-05-05 01:41 | 41.66828 | 158.57156 | 33993 ft | 488 kts | 252° |
| 2026-05-05 01:41 | 41.64755 | 158.48534 | 33993 ft | 488 kts | 252° |
| 2026-05-05 01:42 | 41.62678 | 158.39922 | 33993 ft | 488 kts | 252° |
| 2026-05-05 01:42 | 41.60590 | 158.31294 | 33993 ft | 488 kts | 252° |
| 2026-05-05 01:43 | 41.58510 | 158.22704 | 33993 ft | 488 kts | 252° |
| 2026-05-05 01:43 | 41.56409 | 158.14073 | 33993 ft | 488 kts | 252° |
| 2026-05-05 01:44 | 41.54311 | 158.05499 | 33993 ft | 488 kts | 252° |
| 2026-05-05 01:44 | 41.52202 | 157.96916 | 33993 ft | 488 kts | 252° |
| 2026-05-05 01:45 | 41.50084 | 157.88330 | 33993 ft | 488 kts | 252° |
| 2026-05-05 01:45 | 41.47963 | 157.79762 | 33993 ft | 488 kts | 252° |
| 2026-05-05 01:46 | 41.45838 | 157.71211 | 33993 ft | 488 kts | 252° |
| 2026-05-05 01:46 | 41.43707 | 157.62665 | 33993 ft | 488 kts | 252° |
| 2026-05-05 01:47 | 41.41571 | 157.54131 | 33993 ft | 488 kts | 252° |
| 2026-05-05 01:47 | 41.39424 | 157.45584 | 33993 ft | 488 kts | 252° |
| 2026-05-05 01:48 | 41.37271 | 157.37044 | 33993 ft | 488 kts | 252° |
| 2026-05-05 01:48 | 41.35111 | 157.28488 | 33993 ft | 488 kts | 251° |
| 2026-05-05 01:49 | 41.32944 | 157.19928 | 33993 ft | 488 kts | 251° |
| 2026-05-05 01:49 | 41.30774 | 157.11398 | 33993 ft | 488 kts | 251° |
| 2026-05-05 01:50 | 41.28607 | 157.02919 | 33993 ft | 488 kts | 251° |
| 2026-05-05 01:50 | 41.26419 | 156.94394 | 33993 ft | 488 kts | 251° |
| 2026-05-05 01:51 | 41.24220 | 156.85852 | 33993 ft | 488 kts | 251° |
| 2026-05-05 01:51 | 41.22032 | 156.77387 | 33993 ft | 488 kts | 251° |
| 2026-05-05 01:52 | 41.19824 | 156.68874 | 33993 ft | 488 kts | 251° |
| 2026-05-05 01:52 | 41.17621 | 156.60411 | 33993 ft | 488 kts | 251° |
| 2026-05-05 01:53 | 41.15401 | 156.51909 | 33993 ft | 488 kts | 251° |
| 2026-05-05 01:53 | 41.13175 | 156.43419 | 33994 ft | 488 kts | 251° |
| 2026-05-05 01:54 | 41.10942 | 156.34927 | 33994 ft | 488 kts | 250° |
| 2026-05-05 01:54 | 41.08717 | 156.26469 | 33993 ft | 488 kts | 250° |
| 2026-05-05 01:55 | 41.06479 | 156.17998 | 33993 ft | 488 kts | 250° |
| 2026-05-05 01:55 | 41.04240 | 156.09564 | 33993 ft | 488 kts | 250° |
| 2026-05-05 01:56 | 41.01981 | 156.01086 | 33993 ft | 488 kts | 250° |
| 2026-05-05 01:56 | 40.99716 | 155.92622 | 33993 ft | 488 kts | 250° |
| 2026-05-05 01:57 | 40.97465 | 155.84238 | 33993 ft | 488 kts | 250° |
| 2026-05-05 01:57 | 40.95181 | 155.75757 | 33993 ft | 488 kts | 250° |
| 2026-05-05 01:58 | 40.92913 | 155.67369 | 33993 ft | 488 kts | 250° |
| 2026-05-05 01:58 | 40.90617 | 155.58903 | 33994 ft | 488 kts | 250° |
| 2026-05-05 01:59 | 40.88325 | 155.50543 | 33993 ft | 488 kts | 250° |
| 2026-05-05 01:59 | 40.85990 | 155.42099 | 33992 ft | 488 kts | 250° |
| 2026-05-05 02:00 | 40.83684 | 155.33727 | 33992 ft | 488 kts | 250° |
| 2026-05-05 02:00 | 40.81374 | 155.25308 | 33993 ft | 488 kts | 250° |
| 2026-05-05 02:01 | 40.79062 | 155.16907 | 33993 ft | 488 kts | 250° |
| 2026-05-05 02:01 | 40.76752 | 155.08556 | 33993 ft | 488 kts | 250° |
| 2026-05-05 02:02 | 40.74426 | 155.00176 | 33993 ft | 488 kts | 250° |
| 2026-05-05 02:02 | 40.72079 | 154.91746 | 33993 ft | 488 kts | 250° |
| 2026-05-05 02:03 | 40.69739 | 154.83374 | 33993 ft | 488 kts | 250° |
| 2026-05-05 02:03 | 40.67405 | 154.75050 | 33993 ft | 488 kts | 250° |
| 2026-05-05 02:04 | 40.65058 | 154.66710 | 33993 ft | 488 kts | 250° |
| 2026-05-05 02:04 | 40.62687 | 154.58308 | 33993 ft | 488 kts | 250° |
| 2026-05-05 02:05 | 40.60332 | 154.49992 | 33993 ft | 488 kts | 250° |
| 2026-05-05 02:05 | 40.57959 | 154.41637 | 33993 ft | 488 kts | 250° |
| 2026-05-05 02:06 | 40.55572 | 154.33263 | 33993 ft | 488 kts | 249° |
| 2026-05-05 02:06 | 40.53213 | 154.24979 | 33993 ft | 488 kts | 249° |
| 2026-05-05 02:07 | 40.50822 | 154.16626 | 33993 ft | 488 kts | 249° |
| 2026-05-05 02:07 | 40.48435 | 154.08319 | 33993 ft | 488 kts | 249° |
| 2026-05-05 02:08 | 40.46031 | 153.99991 | 33993 ft | 488 kts | 249° |
| 2026-05-05 02:08 | 40.43633 | 153.91710 | 33993 ft | 488 kts | 249° |
| 2026-05-05 02:09 | 40.41212 | 153.83377 | 33993 ft | 488 kts | 249° |
| 2026-05-05 02:09 | 40.38788 | 153.75061 | 33993 ft | 488 kts | 249° |
| 2026-05-05 02:10 | 40.36379 | 153.66820 | 33993 ft | 488 kts | 249° |
| 2026-05-05 02:10 | 40.33947 | 153.58530 | 33993 ft | 488 kts | 249° |
| 2026-05-05 02:11 | 40.31504 | 153.50224 | 33993 ft | 488 kts | 249° |
| 2026-05-05 02:11 | 40.29060 | 153.41946 | 33993 ft | 488 kts | 249° |
| 2026-05-05 02:12 | 40.25399 | 153.29576 | 33993 ft | 488 kts | 249° |
| 2026-05-05 02:13 | 40.22957 | 153.21336 | 33993 ft | 488 kts | 249° |
| 2026-05-05 02:13 | 40.20484 | 153.13040 | 33993 ft | 488 kts | 249° |
| 2026-05-05 02:14 | 40.18030 | 153.04835 | 33993 ft | 488 kts | 248° |
| 2026-05-05 02:14 | 40.15557 | 152.96600 | 33993 ft | 488 kts | 248° |
| 2026-05-05 02:15 | 40.13072 | 152.88347 | 33993 ft | 488 kts | 248° |
| 2026-05-05 02:15 | 40.10584 | 152.80112 | 33993 ft | 488 kts | 248° |
| 2026-05-05 02:16 | 40.08103 | 152.71922 | 33993 ft | 488 kts | 248° |
| 2026-05-05 02:16 | 40.05605 | 152.63705 | 33993 ft | 488 kts | 248° |
| 2026-05-05 02:17 | 40.03097 | 152.55482 | 33993 ft | 488 kts | 248° |
| 2026-05-05 02:17 | 40.00600 | 152.47314 | 33994 ft | 488 kts | 248° |
| 2026-05-05 02:18 | 39.98074 | 152.39079 | 33994 ft | 488 kts | 248° |
| 2026-05-05 02:18 | 39.95562 | 152.30908 | 33993 ft | 488 kts | 248° |
| 2026-05-05 02:19 | 39.93051 | 152.22742 | 33993 ft | 488 kts | 248° |
| 2026-05-05 02:19 | 39.90513 | 152.14528 | 33993 ft | 488 kts | 248° |
| 2026-05-05 02:20 | 39.87962 | 152.06369 | 33993 ft | 488 kts | 248° |
| 2026-05-05 02:20 | 39.85405 | 151.98244 | 33993 ft | 488 kts | 248° |
| 2026-05-05 02:21 | 39.82857 | 151.90122 | 33993 ft | 488 kts | 248° |
| 2026-05-05 02:21 | 39.80286 | 151.81926 | 33993 ft | 488 kts | 248° |
| 2026-05-05 02:22 | 39.77732 | 151.73799 | 33993 ft | 488 kts | 248° |
| 2026-05-05 02:22 | 39.75161 | 151.65645 | 33993 ft | 488 kts | 248° |
| 2026-05-05 02:23 | 39.72599 | 151.57538 | 33993 ft | 488 kts | 248° |
| 2026-05-05 02:23 | 39.70031 | 151.49437 | 33993 ft | 488 kts | 248° |
| 2026-05-05 02:24 | 39.67444 | 151.41301 | 33993 ft | 488 kts | 248° |
| 2026-05-05 02:24 | 39.64865 | 151.33211 | 33993 ft | 488 kts | 247° |
| 2026-05-05 02:25 | 39.62267 | 151.25058 | 33993 ft | 488 kts | 247° |
| 2026-05-05 02:25 | 39.59679 | 151.16971 | 33993 ft | 488 kts | 247° |
| 2026-05-05 02:26 | 39.57083 | 151.08893 | 33993 ft | 488 kts | 247° |
| 2026-05-05 02:26 | 39.54460 | 151.00763 | 33993 ft | 488 kts | 247° |
| 2026-05-05 02:27 | 39.51848 | 150.92690 | 33993 ft | 488 kts | 247° |
| 2026-05-05 02:27 | 39.49227 | 150.84611 | 33993 ft | 488 kts | 247° |
| 2026-05-05 02:28 | 39.46604 | 150.76553 | 33993 ft | 488 kts | 247° |
| 2026-05-05 02:28 | 39.43969 | 150.68481 | 33993 ft | 488 kts | 247° |
| 2026-05-05 02:29 | 39.41342 | 150.60457 | 33993 ft | 488 kts | 247° |
| 2026-05-05 02:29 | 39.38699 | 150.52405 | 33993 ft | 488 kts | 247° |
| 2026-05-05 02:30 | 39.36046 | 150.44348 | 33993 ft | 488 kts | 247° |
| 2026-05-05 02:30 | 39.33390 | 150.36305 | 33993 ft | 488 kts | 247° |
| 2026-05-05 02:31 | 39.30727 | 150.28249 | 33993 ft | 488 kts | 246° |
| 2026-05-05 02:31 | 39.28077 | 150.20248 | 33993 ft | 488 kts | 246° |
| 2026-05-05 02:32 | 39.25391 | 150.12187 | 33993 ft | 488 kts | 246° |
| 2026-05-05 02:32 | 39.22720 | 150.04199 | 33993 ft | 488 kts | 246° |
| 2026-05-05 02:33 | 39.20018 | 149.96159 | 33993 ft | 488 kts | 246° |
| 2026-05-05 02:33 | 39.17341 | 149.88208 | 33993 ft | 488 kts | 246° |
| 2026-05-05 02:34 | 39.14452 | 149.80321 | 33993 ft | 488 kts | 242° |
| 2026-05-05 02:34 | 39.11145 | 149.72720 | 33993 ft | 488 kts | 240° |
| 2026-05-05 02:35 | 39.07781 | 149.65120 | 33993 ft | 488 kts | 240° |
| 2026-05-05 02:35 | 39.04446 | 149.57606 | 33993 ft | 488 kts | 240° |
| 2026-05-05 02:36 | 39.01065 | 149.50003 | 33994 ft | 488 kts | 240° |
| 2026-05-05 02:36 | 38.97724 | 149.42505 | 33994 ft | 488 kts | 240° |
| 2026-05-05 02:37 | 38.94356 | 149.34966 | 33994 ft | 488 kts | 240° |
| 2026-05-05 02:37 | 38.90982 | 149.27403 | 33993 ft | 488 kts | 240° |
| 2026-05-05 02:38 | 38.87594 | 149.19867 | 33993 ft | 488 kts | 239° |
| 2026-05-05 02:38 | 38.84208 | 149.12392 | 33993 ft | 488 kts | 239° |
| 2026-05-05 02:39 | 38.80809 | 149.04880 | 33993 ft | 488 kts | 240° |
| 2026-05-05 02:39 | 38.77417 | 148.97382 | 33993 ft | 488 kts | 240° |
| 2026-05-05 02:40 | 38.74016 | 148.89879 | 33993 ft | 488 kts | 240° |
| 2026-05-05 02:40 | 38.70619 | 148.82399 | 33993 ft | 488 kts | 240° |
| 2026-05-05 02:41 | 38.67213 | 148.74916 | 33993 ft | 488 kts | 240° |
| 2026-05-05 02:41 | 38.63801 | 148.67438 | 33993 ft | 488 kts | 240° |
| 2026-05-05 02:42 | 38.60391 | 148.59981 | 33993 ft | 488 kts | 240° |
| 2026-05-05 02:42 | 38.56949 | 148.52472 | 33993 ft | 488 kts | 240° |
| 2026-05-05 02:43 | 38.53526 | 148.45023 | 33993 ft | 488 kts | 240° |
| 2026-05-05 02:43 | 38.50093 | 148.37567 | 33993 ft | 488 kts | 240° |
| 2026-05-05 02:44 | 38.46669 | 148.30136 | 33993 ft | 488 kts | 239° |
| 2026-05-05 02:44 | 38.43236 | 148.22687 | 33993 ft | 488 kts | 239° |
| 2026-05-05 02:45 | 38.39811 | 148.15288 | 33993 ft | 488 kts | 239° |
| 2026-05-05 02:45 | 38.36357 | 148.07852 | 33993 ft | 488 kts | 239° |
| 2026-05-05 02:46 | 38.32907 | 148.00447 | 33993 ft | 488 kts | 239° |
| 2026-05-05 02:46 | 38.29432 | 147.93004 | 33993 ft | 488 kts | 239° |
| 2026-05-05 02:47 | 38.25979 | 147.85626 | 33993 ft | 488 kts | 239° |
| 2026-05-05 02:47 | 38.22509 | 147.78232 | 33993 ft | 488 kts | 239° |
| 2026-05-05 02:48 | 38.19043 | 147.70857 | 33993 ft | 488 kts | 239° |
| 2026-05-05 02:48 | 38.15554 | 147.63457 | 33993 ft | 488 kts | 239° |
| 2026-05-05 02:49 | 38.12066 | 147.56071 | 33993 ft | 488 kts | 239° |
| 2026-05-05 02:49 | 38.08590 | 147.48730 | 33993 ft | 488 kts | 239° |
| 2026-05-05 02:50 | 38.05088 | 147.41350 | 33994 ft | 488 kts | 239° |
| 2026-05-05 02:50 | 38.01599 | 147.34015 | 33994 ft | 488 kts | 238° |
| 2026-05-05 02:51 | 37.98114 | 147.26674 | 33993 ft | 488 kts | 238° |
| 2026-05-05 02:51 | 37.94630 | 147.19360 | 33993 ft | 488 kts | 238° |
| 2026-05-05 02:52 | 37.91103 | 147.11987 | 33993 ft | 488 kts | 238° |
| 2026-05-05 02:52 | 37.87578 | 147.04674 | 33993 ft | 488 kts | 238° |
| 2026-05-05 02:53 | 37.84052 | 146.97400 | 33993 ft | 488 kts | 238° |
| 2026-05-05 02:53 | 37.80525 | 146.90109 | 33993 ft | 488 kts | 238° |
| 2026-05-05 02:54 | 37.76989 | 146.82799 | 33993 ft | 488 kts | 238° |
| 2026-05-05 02:54 | 37.73448 | 146.75488 | 33993 ft | 488 kts | 238° |
| 2026-05-05 02:55 | 37.69911 | 146.68201 | 33993 ft | 488 kts | 238° |
| 2026-05-05 02:55 | 37.66370 | 146.60921 | 33993 ft | 488 kts | 238° |
| 2026-05-05 02:56 | 37.62825 | 146.53648 | 33993 ft | 488 kts | 238° |
| 2026-05-05 02:56 | 37.59273 | 146.46379 | 33993 ft | 488 kts | 238° |
| 2026-05-05 02:57 | 37.55713 | 146.39107 | 33993 ft | 488 kts | 238° |
| 2026-05-05 02:57 | 37.52176 | 146.31892 | 33993 ft | 488 kts | 238° |
| 2026-05-05 02:58 | 37.48604 | 146.24600 | 33993 ft | 488 kts | 238° |
| 2026-05-05 02:58 | 37.45056 | 146.17390 | 33993 ft | 488 kts | 238° |
| 2026-05-05 02:59 | 37.41478 | 146.10147 | 33993 ft | 488 kts | 238° |
| 2026-05-05 02:59 | 37.37899 | 146.02925 | 33993 ft | 488 kts | 238° |
| 2026-05-05 03:00 | 37.34304 | 145.95688 | 33993 ft | 488 kts | 238° |
| 2026-05-05 03:00 | 37.30711 | 145.88480 | 33993 ft | 488 kts | 238° |
| 2026-05-05 03:01 | 37.27123 | 145.81291 | 33993 ft | 488 kts | 238° |
| 2026-05-05 03:01 | 37.24012 | 145.73759 | 33991 ft | 488 kts | 250° |
| 2026-05-05 03:02 | 37.22590 | 145.65466 | 33991 ft | 488 kts | 266° |
| 2026-05-05 03:02 | 37.23002 | 145.57045 | 33990 ft | 488 kts | 282° |
| 2026-05-05 03:03 | 37.25046 | 145.48962 | 33993 ft | 488 kts | 291° |
| 2026-05-05 03:03 | 37.27483 | 145.41010 | 33993 ft | 488 kts | 291° |
| 2026-05-05 03:04 | 37.29888 | 145.33101 | 33993 ft | 488 kts | 290° |
| 2026-05-05 03:04 | 37.32272 | 145.25134 | 33993 ft | 488 kts | 290° |
| 2026-05-05 03:05 | 37.34640 | 145.17174 | 33993 ft | 488 kts | 290° |
| 2026-05-05 03:05 | 37.37006 | 145.09201 | 33993 ft | 488 kts | 290° |
| 2026-05-05 03:06 | 37.39373 | 145.01202 | 33993 ft | 488 kts | 290° |
| 2026-05-05 03:06 | 37.41723 | 144.93236 | 33993 ft | 488 kts | 290° |
| 2026-05-05 03:07 | 37.44080 | 144.85228 | 33993 ft | 488 kts | 290° |
| 2026-05-05 03:07 | 37.46434 | 144.77203 | 33993 ft | 488 kts | 290° |
| 2026-05-05 03:08 | 37.48770 | 144.69218 | 33993 ft | 488 kts | 290° |
| 2026-05-05 03:08 | 37.51104 | 144.61217 | 33993 ft | 488 kts | 290° |
| 2026-05-05 03:09 | 37.53425 | 144.53235 | 33993 ft | 488 kts | 290° |
| 2026-05-05 03:09 | 37.55747 | 144.45226 | 33993 ft | 488 kts | 290° |
| 2026-05-05 03:10 | 37.58067 | 144.37198 | 33993 ft | 488 kts | 290° |
| 2026-05-05 03:10 | 37.60372 | 144.29184 | 33993 ft | 488 kts | 290° |
| 2026-05-05 03:11 | 37.62683 | 144.21114 | 33993 ft | 488 kts | 290° |
| 2026-05-05 03:11 | 37.64975 | 144.13101 | 33993 ft | 488 kts | 290° |
| 2026-05-05 03:12 | 37.67265 | 144.05080 | 33993 ft | 488 kts | 290° |
| 2026-05-05 03:12 | 37.69570 | 143.96976 | 33993 ft | 488 kts | 290° |
| 2026-05-05 03:13 | 37.71839 | 143.88982 | 33993 ft | 488 kts | 290° |
| 2026-05-05 03:13 | 37.74131 | 143.80873 | 33993 ft | 488 kts | 290° |
| 2026-05-05 03:14 | 37.76390 | 143.72852 | 33993 ft | 488 kts | 290° |
| 2026-05-05 03:14 | 37.78651 | 143.64789 | 33993 ft | 488 kts | 290° |
| 2026-05-05 03:15 | 37.80848 | 143.56648 | 33992 ft | 488 kts | 287° |
| 2026-05-05 03:15 | 37.82452 | 143.48354 | 33992 ft | 488 kts | 281° |
| 2026-05-05 03:16 | 37.83594 | 143.39893 | 33992 ft | 488 kts | 279° |
| 2026-05-05 03:16 | 37.84665 | 143.31633 | 33993 ft | 488 kts | 279° |
| 2026-05-05 03:17 | 37.85777 | 143.23167 | 33993 ft | 488 kts | 279° |
| 2026-05-05 03:17 | 37.86900 | 143.14703 | 33993 ft | 488 kts | 279° |
| 2026-05-05 03:18 | 37.88007 | 143.06291 | 33993 ft | 488 kts | 279° |
| 2026-05-05 03:18 | 37.89111 | 142.97821 | 33993 ft | 488 kts | 279° |
| 2026-05-05 03:19 | 37.90752 | 142.85120 | 33993 ft | 488 kts | 279° |
| 2026-05-05 03:19 | 37.91835 | 142.76674 | 33993 ft | 488 kts | 279° |
| 2026-05-05 03:20 | 37.92919 | 142.68158 | 33993 ft | 488 kts | 279° |
| 2026-05-05 03:20 | 37.93986 | 142.59741 | 33993 ft | 488 kts | 279° |
| 2026-05-05 03:21 | 37.95055 | 142.51245 | 33992 ft | 488 kts | 279° |
| 2026-05-05 03:21 | 37.96113 | 142.42784 | 33992 ft | 488 kts | 279° |
| 2026-05-05 03:22 | 37.97164 | 142.34328 | 33992 ft | 488 kts | 278° |
| 2026-05-05 03:22 | 37.98161 | 142.26230 | 33993 ft | 488 kts | 278° |
| 2026-05-05 03:23 | 37.99197 | 142.17770 | 33993 ft | 488 kts | 278° |
| 2026-05-05 03:23 | 38.00230 | 142.09283 | 33993 ft | 488 kts | 278° |
| 2026-05-05 03:24 | 38.01264 | 142.00789 | 33993 ft | 488 kts | 279° |
| 2026-05-05 03:24 | 38.02291 | 141.92331 | 33993 ft | 488 kts | 278° |
| 2026-05-05 03:25 | 38.03316 | 141.83795 | 33993 ft | 488 kts | 278° |
| 2026-05-05 03:25 | 38.04323 | 141.75339 | 33993 ft | 488 kts | 278° |
| 2026-05-05 03:26 | 38.05331 | 141.66818 | 33993 ft | 488 kts | 278° |
| 2026-05-05 03:26 | 38.06325 | 141.58357 | 33992 ft | 488 kts | 278° |
| 2026-05-05 03:27 | 38.07321 | 141.49824 | 33992 ft | 488 kts | 278° |
| 2026-05-05 03:27 | 38.08302 | 141.41365 | 33992 ft | 488 kts | 278° |
| 2026-05-05 03:28 | 38.09288 | 141.32799 | 33992 ft | 488 kts | 278° |
| 2026-05-05 03:28 | 38.10262 | 141.24284 | 33993 ft | 488 kts | 278° |
| 2026-05-05 03:29 | 38.11250 | 141.15813 | 33993 ft | 488 kts | 278° |
| 2026-05-05 03:29 | 38.12218 | 141.07268 | 33993 ft | 488 kts | 278° |
| 2026-05-05 03:30 | 38.13101 | 140.98764 | 33993 ft | 488 kts | 275° |
| 2026-05-05 03:30 | 38.13406 | 140.90202 | 33994 ft | 488 kts | 269° |
| 2026-05-05 03:31 | 38.12983 | 140.81609 | 33994 ft | 488 kts | 263° |
| 2026-05-05 03:31 | 38.12183 | 140.73056 | 33993 ft | 488 kts | 263° |
| 2026-05-05 03:32 | 38.11362 | 140.64496 | 33993 ft | 488 kts | 263° |
| 2026-05-05 03:32 | 38.10550 | 140.55983 | 33993 ft | 488 kts | 263° |
| 2026-05-05 03:33 | 38.09736 | 140.47467 | 33994 ft | 488 kts | 263° |
| 2026-05-05 03:33 | 38.08913 | 140.38908 | 33994 ft | 488 kts | 263° |
| 2026-05-05 03:34 | 38.08091 | 140.30415 | 33993 ft | 488 kts | 263° |
| 2026-05-05 03:34 | 38.07258 | 140.21869 | 33993 ft | 488 kts | 263° |
| 2026-05-05 03:35 | 38.06417 | 140.13315 | 33993 ft | 488 kts | 263° |
| 2026-05-05 03:35 | 38.05570 | 140.04797 | 33993 ft | 488 kts | 263° |
| 2026-05-05 03:36 | 38.04716 | 139.96291 | 33993 ft | 488 kts | 263° |
| 2026-05-05 03:36 | 38.03847 | 139.87727 | 33993 ft | 488 kts | 263° |
| 2026-05-05 03:37 | 38.02981 | 139.79266 | 33993 ft | 488 kts | 263° |
| 2026-05-05 03:37 | 38.02116 | 139.70699 | 33993 ft | 488 kts | 263° |
| 2026-05-05 03:38 | 38.01259 | 139.62225 | 33993 ft | 488 kts | 263° |
| 2026-05-05 03:38 | 38.00378 | 139.53697 | 33994 ft | 488 kts | 263° |
| 2026-05-05 03:39 | 37.99488 | 139.45192 | 33994 ft | 488 kts | 263° |
| 2026-05-05 03:39 | 37.98589 | 139.36687 | 33994 ft | 488 kts | 263° |
| 2026-05-05 03:40 | 37.97681 | 139.28174 | 33993 ft | 488 kts | 262° |
| 2026-05-05 03:40 | 37.96766 | 139.19672 | 33993 ft | 488 kts | 262° |
| 2026-05-05 03:41 | 37.95966 | 139.11154 | 33991 ft | 488 kts | 265° |
| 2026-05-05 03:41 | 37.95688 | 139.02559 | 33992 ft | 488 kts | 268° |
| 2026-05-05 03:42 | 37.95499 | 138.93988 | 33993 ft | 488 kts | 268° |
| 2026-05-05 03:42 | 37.95294 | 138.85416 | 33993 ft | 488 kts | 268° |
| 2026-05-05 03:43 | 37.95076 | 138.76839 | 33993 ft | 488 kts | 268° |
| 2026-05-05 03:43 | 37.94850 | 138.68300 | 33993 ft | 488 kts | 268° |
| 2026-05-05 03:44 | 37.94617 | 138.59723 | 33994 ft | 488 kts | 268° |
| 2026-05-05 03:44 | 37.94376 | 138.51147 | 33994 ft | 488 kts | 268° |
| 2026-05-05 03:45 | 37.94128 | 138.42580 | 33994 ft | 488 kts | 268° |
| 2026-05-05 03:45 | 37.93872 | 138.33981 | 33994 ft | 488 kts | 268° |
| 2026-05-05 03:46 | 37.93607 | 138.25378 | 33993 ft | 488 kts | 268° |
| 2026-05-05 03:46 | 37.93333 | 138.16853 | 33993 ft | 488 kts | 268° |
| 2026-05-05 03:47 | 37.93062 | 138.08281 | 33993 ft | 488 kts | 268° |
| 2026-05-05 03:47 | 37.92808 | 137.99719 | 33993 ft | 488 kts | 268° |
| 2026-05-05 03:48 | 37.92535 | 137.91126 | 33993 ft | 488 kts | 268° |
| 2026-05-05 03:48 | 37.92248 | 137.82538 | 33993 ft | 488 kts | 268° |
| 2026-05-05 03:49 | 37.91953 | 137.73994 | 33993 ft | 488 kts | 268° |
| 2026-05-05 03:49 | 37.91648 | 137.65408 | 33994 ft | 488 kts | 268° |
| 2026-05-05 03:50 | 37.91338 | 137.56854 | 33994 ft | 488 kts | 268° |
| 2026-05-05 03:50 | 37.91018 | 137.48280 | 33994 ft | 488 kts | 268° |
| 2026-05-05 03:51 | 37.90687 | 137.39716 | 33994 ft | 488 kts | 267° |
| 2026-05-05 03:51 | 37.90351 | 137.31163 | 33993 ft | 488 kts | 267° |
| 2026-05-05 03:52 | 37.90041 | 137.22600 | 33993 ft | 488 kts | 267° |
| 2026-05-05 03:52 | 37.89732 | 137.14241 | 33993 ft | 488 kts | 267° |
| 2026-05-05 03:53 | 37.89391 | 137.05698 | 33993 ft | 488 kts | 267° |
| 2026-05-05 03:53 | 37.89052 | 136.97157 | 33993 ft | 488 kts | 267° |
| 2026-05-05 03:54 | 37.88708 | 136.88565 | 33993 ft | 488 kts | 267° |
| 2026-05-05 03:54 | 37.88363 | 136.80037 | 33993 ft | 488 kts | 267° |
| 2026-05-05 03:55 | 37.88010 | 136.71474 | 33993 ft | 488 kts | 267° |
| 2026-05-05 03:55 | 37.87650 | 136.62872 | 33993 ft | 488 kts | 267° |
| 2026-05-05 03:56 | 37.87286 | 136.54323 | 33992 ft | 488 kts | 267° |
| 2026-05-05 03:56 | 37.86917 | 136.45805 | 33992 ft | 488 kts | 267° |
| 2026-05-05 03:57 | 37.86539 | 136.37236 | 33992 ft | 488 kts | 267° |
| 2026-05-05 03:57 | 37.86158 | 136.28693 | 33993 ft | 488 kts | 266° |
| 2026-05-05 03:58 | 37.85768 | 136.20099 | 33993 ft | 488 kts | 266° |
| 2026-05-05 03:58 | 37.85374 | 136.11557 | 33993 ft | 488 kts | 266° |
| 2026-05-05 03:59 | 37.84972 | 136.03006 | 33993 ft | 488 kts | 266° |
| 2026-05-05 03:59 | 37.84565 | 135.94467 | 33993 ft | 488 kts | 266° |
| 2026-05-05 04:00 | 37.84152 | 135.85938 | 33993 ft | 488 kts | 266° |
| 2026-05-05 04:00 | 37.83730 | 135.77353 | 33993 ft | 488 kts | 266° |
| 2026-05-05 04:01 | 37.83303 | 135.68806 | 33993 ft | 488 kts | 266° |
| 2026-05-05 04:01 | 37.82870 | 135.60246 | 33993 ft | 488 kts | 266° |
| 2026-05-05 04:02 | 37.82434 | 135.51755 | 33993 ft | 488 kts | 266° |
| 2026-05-05 04:02 | 37.81987 | 135.43182 | 33992 ft | 488 kts | 266° |
| 2026-05-05 04:03 | 37.81537 | 135.34654 | 33992 ft | 488 kts | 266° |
| 2026-05-05 04:03 | 37.81080 | 135.26079 | 33993 ft | 488 kts | 266° |
| 2026-05-05 04:04 | 37.80618 | 135.17548 | 33993 ft | 488 kts | 266° |
| 2026-05-05 04:04 | 37.80148 | 135.08995 | 33993 ft | 488 kts | 266° |
| 2026-05-05 04:05 | 37.79673 | 135.00456 | 33993 ft | 488 kts | 266° |
| 2026-05-05 04:05 | 37.79191 | 134.91936 | 33993 ft | 488 kts | 266° |
| 2026-05-05 04:06 | 37.78703 | 134.83395 | 33993 ft | 488 kts | 266° |
| 2026-05-05 04:06 | 37.78209 | 134.74872 | 33993 ft | 488 kts | 266° |
| 2026-05-05 04:07 | 37.77707 | 134.66319 | 33993 ft | 488 kts | 266° |
| 2026-05-05 04:07 | 37.77203 | 134.57822 | 33993 ft | 488 kts | 266° |
| 2026-05-05 04:08 | 37.76688 | 134.49266 | 33993 ft | 488 kts | 266° |
| 2026-05-05 04:08 | 37.76168 | 134.40721 | 33992 ft | 488 kts | 266° |
| 2026-05-05 04:09 | 37.75644 | 134.32213 | 33993 ft | 488 kts | 265° |
| 2026-05-05 04:09 | 37.75114 | 134.23694 | 33993 ft | 488 kts | 265° |
| 2026-05-05 04:10 | 37.74575 | 134.15128 | 33993 ft | 488 kts | 265° |
| 2026-05-05 04:10 | 37.74033 | 134.06651 | 33993 ft | 488 kts | 265° |
| 2026-05-05 04:11 | 37.73479 | 133.98108 | 33993 ft | 488 kts | 265° |
| 2026-05-05 04:11 | 37.72921 | 133.89600 | 33993 ft | 488 kts | 265° |
| 2026-05-05 04:12 | 37.72352 | 133.81078 | 33993 ft | 488 kts | 265° |
| 2026-05-05 04:12 | 37.71781 | 133.72562 | 33993 ft | 488 kts | 265° |
| 2026-05-05 04:13 | 37.71214 | 133.64037 | 33993 ft | 488 kts | 265° |
| 2026-05-05 04:13 | 37.70633 | 133.55507 | 33993 ft | 488 kts | 265° |
| 2026-05-05 04:14 | 37.70045 | 133.47034 | 33993 ft | 488 kts | 265° |
| 2026-05-05 04:14 | 37.69443 | 133.38478 | 33993 ft | 488 kts | 265° |
| 2026-05-05 04:15 | 37.68838 | 133.29977 | 33993 ft | 488 kts | 264° |
| 2026-05-05 04:15 | 37.68227 | 133.21464 | 33993 ft | 488 kts | 264° |
| 2026-05-05 04:16 | 37.67607 | 133.12975 | 33993 ft | 488 kts | 264° |
| 2026-05-05 04:16 | 37.66978 | 133.04477 | 33993 ft | 488 kts | 264° |
| 2026-05-05 04:17 | 37.66350 | 132.95956 | 33993 ft | 488 kts | 265° |
| 2026-05-05 04:17 | 37.65720 | 132.87447 | 33993 ft | 488 kts | 264° |
| 2026-05-05 04:18 | 37.65075 | 132.78943 | 33993 ft | 488 kts | 264° |
| 2026-05-05 04:18 | 37.64429 | 132.70453 | 33992 ft | 488 kts | 265° |
| 2026-05-05 04:19 | 37.64185 | 132.61952 | 33994 ft | 488 kts | 270° |
| 2026-05-05 04:19 | 37.64206 | 132.53374 | 33993 ft | 488 kts | 270° |
| 2026-05-05 04:20 | 37.64225 | 132.44836 | 33993 ft | 488 kts | 270° |
| 2026-05-05 04:20 | 37.64230 | 132.36301 | 33993 ft | 488 kts | 270° |
| 2026-05-05 04:21 | 37.64226 | 132.27776 | 33993 ft | 488 kts | 270° |
| 2026-05-05 04:21 | 37.64214 | 132.19241 | 33993 ft | 488 kts | 270° |
| 2026-05-05 04:22 | 37.64196 | 132.10700 | 33993 ft | 488 kts | 270° |
| 2026-05-05 04:22 | 37.64171 | 132.02193 | 33993 ft | 488 kts | 270° |
| 2026-05-05 04:23 | 37.64139 | 131.93657 | 33993 ft | 488 kts | 270° |
| 2026-05-05 04:23 | 37.64100 | 131.85121 | 33993 ft | 488 kts | 270° |
| 2026-05-05 04:24 | 37.64054 | 131.76549 | 33993 ft | 488 kts | 270° |
| 2026-05-05 04:25 | 37.63969 | 131.63763 | 33993 ft | 488 kts | 270° |
| 2026-05-05 04:25 | 37.64004 | 131.55211 | 33992 ft | 488 kts | 272° |
| 2026-05-05 04:26 | 37.64291 | 131.46681 | 33993 ft | 488 kts | 273° |
| 2026-05-05 04:26 | 37.64584 | 131.38127 | 33993 ft | 488 kts | 272° |
| 2026-05-05 04:27 | 37.64859 | 131.29646 | 33993 ft | 488 kts | 272° |
| 2026-05-05 04:27 | 37.65126 | 131.21066 | 33993 ft | 488 kts | 272° |
| 2026-05-05 04:28 | 37.65384 | 131.12572 | 33993 ft | 488 kts | 272° |
| 2026-05-05 04:28 | 37.65636 | 131.04042 | 33993 ft | 488 kts | 272° |
| 2026-05-05 04:29 | 37.65883 | 130.95489 | 33993 ft | 488 kts | 272° |
| 2026-05-05 04:29 | 37.66124 | 130.86940 | 33993 ft | 488 kts | 272° |
| 2026-05-05 04:30 | 37.66357 | 130.78430 | 33993 ft | 488 kts | 272° |
| 2026-05-05 04:30 | 37.66585 | 130.69858 | 33993 ft | 488 kts | 272° |
| 2026-05-05 04:31 | 37.66806 | 130.61304 | 33993 ft | 488 kts | 272° |
| 2026-05-05 04:31 | 37.67019 | 130.52789 | 33993 ft | 488 kts | 272° |
| 2026-05-05 04:32 | 37.67225 | 130.44218 | 33993 ft | 488 kts | 272° |
| 2026-05-05 04:32 | 37.67421 | 130.35733 | 33993 ft | 488 kts | 272° |
| 2026-05-05 04:33 | 37.67614 | 130.27177 | 33993 ft | 488 kts | 271° |
| 2026-05-05 04:33 | 37.67816 | 130.18625 | 33993 ft | 488 kts | 271° |
| 2026-05-05 04:34 | 37.68006 | 130.10088 | 33993 ft | 488 kts | 271° |
| 2026-05-05 04:34 | 37.68185 | 130.01515 | 33993 ft | 488 kts | 271° |
| 2026-05-05 04:35 | 37.68351 | 129.92960 | 33993 ft | 488 kts | 271° |
| 2026-05-05 04:35 | 37.68514 | 129.84418 | 33993 ft | 488 kts | 271° |
| 2026-05-05 04:36 | 37.68678 | 129.75908 | 33993 ft | 488 kts | 271° |
| 2026-05-05 04:36 | 37.68834 | 129.67358 | 33993 ft | 488 kts | 271° |
| 2026-05-05 04:37 | 37.68996 | 129.58792 | 33993 ft | 488 kts | 271° |
| 2026-05-05 04:37 | 37.69146 | 129.50256 | 33993 ft | 488 kts | 271° |
| 2026-05-05 04:38 | 37.69284 | 129.41707 | 33993 ft | 488 kts | 271° |
| 2026-05-05 04:38 | 37.69411 | 129.33353 | 33993 ft | 488 kts | 271° |
| 2026-05-05 04:39 | 37.69532 | 129.24980 | 33993 ft | 488 kts | 271° |
| 2026-05-05 04:39 | 37.69648 | 129.16399 | 33993 ft | 488 kts | 271° |
| 2026-05-05 04:40 | 37.69758 | 129.07873 | 33993 ft | 488 kts | 271° |
| 2026-05-05 04:40 | 37.69859 | 128.99312 | 33993 ft | 488 kts | 271° |
| 2026-05-05 04:41 | 37.69952 | 128.90756 | 33993 ft | 488 kts | 271° |
| 2026-05-05 04:41 | 37.70032 | 128.82233 | 33992 ft | 488 kts | 270° |
| 2026-05-05 04:42 | 37.69685 | 128.73726 | 33992 ft | 488 kts | 264° |
| 2026-05-05 04:42 | 37.68645 | 128.65271 | 33992 ft | 488 kts | 259° |
| 2026-05-05 04:43 | 37.67358 | 128.56845 | 33632 ft | 490 kts | 259° |
| 2026-05-05 04:43 | 37.66718 | 128.52626 | 33037 ft | 489 kts | 259° |
| 2026-05-05 04:43 | 37.66085 | 128.48451 | 32143 ft | 493 kts | 259° |
| 2026-05-05 04:43 | 37.65436 | 128.44191 | 31123 ft | 498 kts | 259° |
| 2026-05-05 04:44 | 37.64788 | 128.39960 | 30294 ft | 500 kts | 259° |
| 2026-05-05 04:44 | 37.64122 | 128.35634 | 29486 ft | 504 kts | 259° |
| 2026-05-05 04:44 | 37.63456 | 128.31303 | 28686 ft | 506 kts | 258° |
| 2026-05-05 04:44 | 37.62789 | 128.26965 | 27885 ft | 506 kts | 258° |
| 2026-05-05 04:45 | 37.62124 | 128.22646 | 27367 ft | 499 kts | 258° |
| 2026-05-05 04:45 | 37.61465 | 128.18388 | 26826 ft | 498 kts | 258° |
| 2026-05-05 04:45 | 37.60807 | 128.14134 | 26280 ft | 493 kts | 258° |
| 2026-05-05 04:45 | 37.60149 | 128.09878 | 25766 ft | 490 kts | 259° |
| 2026-05-05 04:46 | 37.59509 | 128.05727 | 25273 ft | 486 kts | 259° |
| 2026-05-05 04:46 | 37.58868 | 128.01588 | 24783 ft | 483 kts | 259° |
| 2026-05-05 04:46 | 37.58221 | 127.97437 | 24291 ft | 479 kts | 259° |
| 2026-05-05 04:46 | 37.57579 | 127.93333 | 23803 ft | 476 kts | 259° |
| 2026-05-05 04:47 | 37.56939 | 127.89249 | 23317 ft | 473 kts | 258° |
| 2026-05-05 04:47 | 37.56302 | 127.85204 | 22833 ft | 469 kts | 258° |
| 2026-05-05 04:47 | 37.55674 | 127.81229 | 22375 ft | 464 kts | 258° |
| 2026-05-05 04:47 | 37.55048 | 127.77278 | 21916 ft | 455 kts | 259° |
| 2026-05-05 04:48 | 37.54442 | 127.73447 | 21486 ft | 446 kts | 259° |
| 2026-05-05 04:48 | 37.53841 | 127.69660 | 21078 ft | 437 kts | 259° |
| 2026-05-05 04:48 | 37.53250 | 127.65929 | 20680 ft | 429 kts | 259° |
| 2026-05-05 04:48 | 37.52672 | 127.62266 | 20438 ft | 426 kts | 259° |
| 2026-05-05 04:49 | 37.52095 | 127.58628 | 20279 ft | 426 kts | 259° |
| 2026-05-05 04:49 | 37.51511 | 127.54961 | 20133 ft | 425 kts | 259° |
| 2026-05-05 04:49 | 37.50930 | 127.51336 | 20001 ft | 424 kts | 259° |
| 2026-05-05 04:49 | 37.50343 | 127.47686 | 19879 ft | 424 kts | 259° |
| 2026-05-05 04:50 | 37.49763 | 127.44094 | 19773 ft | 423 kts | 259° |
| 2026-05-05 04:50 | 37.49176 | 127.40461 | 19676 ft | 422 kts | 259° |
| 2026-05-05 04:50 | 37.48577 | 127.36848 | 19547 ft | 418 kts | 256° |
| 2026-05-05 04:50 | 37.47472 | 127.33639 | 19134 ft | 390 kts | 233° |
| 2026-05-05 04:51 | 37.45555 | 127.31410 | 18759 ft | 362 kts | 208° |
| 2026-05-05 04:51 | 37.43287 | 127.30521 | 18443 ft | 338 kts | 182° |
| 2026-05-05 04:51 | 37.41035 | 127.30785 | 18138 ft | 320 kts | 169° |
| 2026-05-05 04:51 | 37.38858 | 127.31257 | 17818 ft | 311 kts | 172° |
| 2026-05-05 04:52 | 37.35228 | 127.31610 | 17316 ft | 305 kts | 185° |
| 2026-05-05 04:52 | 37.31211 | 127.30256 | 16884 ft | 300 kts | 205° |
| 2026-05-05 04:52 | 37.27507 | 127.27831 | 16409 ft | 299 kts | 214° |
| 2026-05-05 04:52 | 37.24758 | 127.24081 | 15922 ft | 296 kts | 245° |
| 2026-05-05 04:53 | 37.23991 | 127.19106 | 15471 ft | 293 kts | 277° |
| 2026-05-05 04:53 | 37.25437 | 127.14380 | 15087 ft | 297 kts | 308° |
| 2026-05-05 04:53 | 37.28647 | 127.11211 | 14689 ft | 296 kts | 335° |
| 2026-05-05 04:53 | 37.32325 | 127.08982 | 14240 ft | 295 kts | 325° |
| 2026-05-05 04:54 | 37.35154 | 127.05302 | 13832 ft | 291 kts | 303° |
| 2026-05-05 04:54 | 37.37184 | 127.00992 | 13413 ft | 288 kts | 300° |
| 2026-05-05 04:54 | 37.39256 | 126.96729 | 13183 ft | 276 kts | 303° |
| 2026-05-05 04:54 | 37.41328 | 126.92929 | 13059 ft | 254 kts | 308° |
| 2026-05-05 04:55 | 37.43570 | 126.89634 | 12514 ft | 249 kts | 313° |
| 2026-05-05 04:55 | 37.45933 | 126.86504 | 11932 ft | 243 kts | 314° |
| 2026-05-05 04:55 | 37.48210 | 126.83454 | 11422 ft | 235 kts | 313° |
| 2026-05-05 04:55 | 37.50593 | 126.80182 | 10183 ft | 239 kts | 312° |
| 2026-05-05 04:56 | 37.51706 | 126.78630 | 9722 ft | 244 kts | 312° |
| 2026-05-05 04:56 | 37.52845 | 126.77041 | 9362 ft | 243 kts | 312° |
| 2026-05-05 04:56 | 37.53973 | 126.75469 | 9062 ft | 236 kts | 312° |
| 2026-05-05 04:56 | 37.55043 | 126.73985 | 8951 ft | 222 kts | 313° |
| 2026-05-05 04:57 | 37.56082 | 126.72549 | 8437 ft | 229 kts | 313° |
| 2026-05-05 04:57 | 37.57162 | 126.71050 | 7911 ft | 234 kts | 313° |
| 2026-05-05 04:57 | 37.58246 | 126.69541 | 7544 ft | 231 kts | 313° |
| 2026-05-05 04:57 | 37.59310 | 126.68062 | 7222 ft | 227 kts | 313° |
| 2026-05-05 04:58 | 37.60365 | 126.66594 | 6917 ft | 223 kts | 313° |
| 2026-05-05 04:58 | 37.61394 | 126.65165 | 6626 ft | 220 kts | 313° |
| 2026-05-05 04:58 | 37.62403 | 126.63736 | 6337 ft | 216 kts | 309° |
| 2026-05-05 04:58 | 37.63206 | 126.62139 | 6051 ft | 213 kts | 296° |
| 2026-05-05 04:59 | 37.63791 | 126.60444 | 5783 ft | 210 kts | 292° |
| 2026-05-05 04:59 | 37.64323 | 126.58736 | 5549 ft | 207 kts | 291° |
| 2026-05-05 04:59 | 37.64838 | 126.57072 | 5509 ft | 206 kts | 292° |
| 2026-05-05 04:59 | 37.65365 | 126.55386 | 5396 ft | 203 kts | 292° |
| 2026-05-05 05:00 | 37.65886 | 126.53736 | 5099 ft | 200 kts | 292° |
| 2026-05-05 05:00 | 37.66397 | 126.52130 | 4792 ft | 196 kts | 292° |
| 2026-05-05 05:00 | 37.66881 | 126.50555 | 4491 ft | 193 kts | 289° |
| 2026-05-05 05:00 | 37.67213 | 126.48933 | 4192 ft | 189 kts | 281° |
| 2026-05-05 05:01 | 37.67402 | 126.47303 | 3902 ft | 186 kts | 278° |
| 2026-05-05 05:01 | 37.67562 | 126.45700 | 3617 ft | 183 kts | 277° |
| 2026-05-05 05:01 | 37.67716 | 126.44136 | 3357 ft | 178 kts | 278° |
| 2026-05-05 05:01 | 37.67870 | 126.42611 | 3121 ft | 173 kts | 278° |
| 2026-05-05 05:02 | 37.67884 | 126.41139 | 2882 ft | 166 kts | 260° |
| 2026-05-05 05:02 | 37.67489 | 126.39815 | 2645 ft | 156 kts | 242° |
| 2026-05-05 05:02 | 37.66929 | 126.38658 | 2545 ft | 152 kts | 238° |
| 2026-05-05 05:02 | 37.66351 | 126.37534 | 2490 ft | 152 kts | 238° |
| 2026-05-05 05:03 | 37.65785 | 126.36427 | 2424 ft | 152 kts | 238° |
| 2026-05-05 05:03 | 37.65217 | 126.35301 | 2354 ft | 152 kts | 238° |
| 2026-05-05 05:03 | 37.64659 | 126.34179 | 2277 ft | 152 kts | 238° |
| 2026-05-05 05:03 | 37.64136 | 126.33115 | 2165 ft | 151 kts | 238° |
| 2026-05-05 05:04 | 37.63578 | 126.31980 | 2030 ft | 151 kts | 238° |
| 2026-05-05 05:04 | 37.63026 | 126.30859 | 2015 ft | 151 kts | 238° |
| 2026-05-05 05:04 | 37.62473 | 126.29739 | 2005 ft | 151 kts | 237° |
| 2026-05-05 05:04 | 37.61717 | 126.28884 | 1979 ft | 150 kts | 198° |
| 2026-05-05 05:05 | 37.60691 | 126.28935 | 1993 ft | 151 kts | 154° |
| 2026-05-05 05:05 | 37.59810 | 126.29665 | 2006 ft | 151 kts | 139° |
| 2026-05-05 05:05 | 37.59059 | 126.30579 | 2003 ft | 151 kts | 135° |
| 2026-05-05 05:05 | 37.58293 | 126.31480 | 2000 ft | 151 kts | 139° |
| 2026-05-05 05:06 | 37.57491 | 126.32330 | 1998 ft | 151 kts | 141° |
| 2026-05-05 05:06 | 37.56662 | 126.33155 | 1998 ft | 151 kts | 142° |
| 2026-05-05 05:06 | 37.55830 | 126.33942 | 1997 ft | 151 kts | 143° |
| 2026-05-05 05:06 | 37.54971 | 126.34723 | 1864 ft | 151 kts | 144° |
| 2026-05-05 05:07 | 37.54121 | 126.35477 | 1676 ft | 150 kts | 144° |
| 2026-05-05 05:07 | 37.53273 | 126.36229 | 1486 ft | 150 kts | 144° |
| 2026-05-05 05:07 | 37.52418 | 126.36987 | 1290 ft | 149 kts | 144° |
| 2026-05-05 05:07 | 37.51567 | 126.37744 | 1091 ft | 149 kts | 144° |
| 2026-05-05 05:08 | 37.50724 | 126.38495 | 890 ft | 148 kts | 144° |
| 2026-05-05 05:08 | 37.49885 | 126.39241 | 690 ft | 148 kts | 144° |
| 2026-05-05 05:08 | 37.49050 | 126.39983 | 493 ft | 148 kts | 144° |
| 2026-05-05 05:08 | 37.48209 | 126.40732 | 297 ft | 147 kts | 144° |
| 2026-05-05 05:09 | 37.47374 | 126.41474 | 99 ft | 148 kts | 144° |
| 2026-05-05 05:09 | 37.46570 | 126.42188 | 45 ft | 131 kts | 144° |
| 2026-05-05 05:09 | 37.45906 | 126.42772 | 34 ft | 84 kts | 145° |
| 2026-05-05 05:09 | 37.45797 | 126.43071 | 34 ft | 36 kts | 44° |
| 2026-05-05 05:10 | 37.45968 | 126.43268 | 34 ft | 24 kts | 36° |
| 2026-05-05 05:10 | 37.46086 | 126.43388 | 34 ft | 17 kts | 29° |
| 2026-05-05 05:10 | 37.46139 | 126.43401 | 34 ft | 0 kts | 0° |